<?xml version="1.0" encoding="UTF-8" standalone="no" ?>
<gpx xmlns="http://www.topografix.com/GPX/1/1" xmlns:xsi="http://www.w3.org/2001/XMLSchema-instance" xsi:schemaLocation="http://www.topografix.com/GPX/1/1 http://www.topografix.com/GPX/1/1/gpx.xsd" version="1.1" creator="VisuGPX - https://www.visugpx.com">
  <metadata>
    <name>dourdan roinville animée</name>
    <desc><![CDATA[AVF Antony
dourdan roinville animée 
la ronde des Hameaux]]></desc>
  </metadata>
  <trk>
    <name><![CDATA[dourdan roinville animée ]]></name>
    <cmt><![CDATA[29 avr. 2017 à 13:55:04]]></cmt>
    <trkseg>
      <trkpt lat="48.53416" lon="2.00999">
        <ele>118</ele>
        <time>2017-04-29T11:55:05Z</time>
      </trkpt>
      <trkpt lat="48.53417" lon="2.01007">
        <ele>118</ele>
        <time>2017-04-29T11:55:11Z</time>
      </trkpt>
      <trkpt lat="48.53416" lon="2.01015">
        <ele>118</ele>
        <time>2017-04-29T11:55:17Z</time>
      </trkpt>
      <trkpt lat="48.53412" lon="2.01031">
        <ele>118</ele>
        <time>2017-04-29T11:55:28Z</time>
      </trkpt>
      <trkpt lat="48.53411" lon="2.01039">
        <ele>118</ele>
        <time>2017-04-29T11:55:33Z</time>
      </trkpt>
      <trkpt lat="48.53406" lon="2.01062">
        <ele>117</ele>
        <time>2017-04-29T11:55:45Z</time>
      </trkpt>
      <trkpt lat="48.53402" lon="2.01095">
        <ele>117</ele>
        <time>2017-04-29T11:56:04Z</time>
      </trkpt>
      <trkpt lat="48.53396" lon="2.01117">
        <ele>117</ele>
        <time>2017-04-29T11:56:16Z</time>
      </trkpt>
      <trkpt lat="48.53395" lon="2.01124">
        <ele>117</ele>
        <time>2017-04-29T11:56:21Z</time>
      </trkpt>
      <trkpt lat="48.53394" lon="2.01132">
        <ele>117</ele>
        <time>2017-04-29T11:56:26Z</time>
      </trkpt>
      <trkpt lat="48.53389" lon="2.01194">
        <ele>115</ele>
        <time>2017-04-29T11:56:57Z</time>
      </trkpt>
      <trkpt lat="48.53386" lon="2.01201">
        <ele>115</ele>
        <time>2017-04-29T11:57:01Z</time>
      </trkpt>
      <trkpt lat="48.53383" lon="2.01208">
        <ele>115</ele>
        <time>2017-04-29T11:57:05Z</time>
      </trkpt>
      <trkpt lat="48.53369" lon="2.01219">
        <ele>114</ele>
        <time>2017-04-29T11:57:16Z</time>
      </trkpt>
      <trkpt lat="48.53369" lon="2.01226">
        <ele>114</ele>
        <time>2017-04-29T11:57:23Z</time>
      </trkpt>
      <trkpt lat="48.53375" lon="2.01233">
        <ele>114</ele>
        <time>2017-04-29T11:57:36Z</time>
      </trkpt>
      <trkpt lat="48.53379" lon="2.01236">
        <ele>114</ele>
        <time>2017-04-29T11:57:40Z</time>
      </trkpt>
      <trkpt lat="48.53383" lon="2.01242">
        <ele>115</ele>
        <time>2017-04-29T11:57:47Z</time>
      </trkpt>
      <trkpt lat="48.53386" lon="2.01247">
        <ele>115</ele>
        <time>2017-04-29T11:57:53Z</time>
      </trkpt>
      <trkpt lat="48.53391" lon="2.01244">
        <ele>116</ele>
        <time>2017-04-29T11:57:58Z</time>
      </trkpt>
      <trkpt lat="48.53395" lon="2.01239">
        <ele>116</ele>
        <time>2017-04-29T11:58:02Z</time>
      </trkpt>
      <trkpt lat="48.53399" lon="2.01237">
        <ele>117</ele>
        <time>2017-04-29T11:58:09Z</time>
      </trkpt>
      <trkpt lat="48.53404" lon="2.01235">
        <ele>117</ele>
        <time>2017-04-29T11:58:14Z</time>
      </trkpt>
      <trkpt lat="48.53413" lon="2.01228">
        <ele>117</ele>
        <time>2017-04-29T11:58:23Z</time>
      </trkpt>
      <trkpt lat="48.53437" lon="2.01186">
        <ele>120</ele>
        <time>2017-04-29T11:58:56Z</time>
      </trkpt>
      <trkpt lat="48.53459" lon="2.01153">
        <ele>121</ele>
        <time>2017-04-29T11:59:25Z</time>
      </trkpt>
      <trkpt lat="48.53462" lon="2.01146">
        <ele>122</ele>
        <time>2017-04-29T11:59:30Z</time>
      </trkpt>
      <trkpt lat="48.53466" lon="2.01142">
        <ele>122</ele>
        <time>2017-04-29T11:59:34Z</time>
      </trkpt>
      <trkpt lat="48.53476" lon="2.01136">
        <ele>123</ele>
        <time>2017-04-29T11:59:42Z</time>
      </trkpt>
      <trkpt lat="48.53509" lon="2.01095">
        <ele>125</ele>
        <time>2017-04-29T12:00:16Z</time>
      </trkpt>
      <trkpt lat="48.53527" lon="2.01067">
        <ele>126</ele>
        <time>2017-04-29T12:00:37Z</time>
      </trkpt>
      <trkpt lat="48.53531" lon="2.01064">
        <ele>126</ele>
        <time>2017-04-29T12:00:42Z</time>
      </trkpt>
      <trkpt lat="48.53536" lon="2.01063">
        <ele>127</ele>
        <time>2017-04-29T12:00:46Z</time>
      </trkpt>
      <trkpt lat="48.53541" lon="2.0106">
        <ele>127</ele>
        <time>2017-04-29T12:00:51Z</time>
      </trkpt>
      <trkpt lat="48.53546" lon="2.01059">
        <ele>127</ele>
        <time>2017-04-29T12:00:56Z</time>
      </trkpt>
      <trkpt lat="48.53561" lon="2.01063">
        <ele>128</ele>
        <time>2017-04-29T12:01:09Z</time>
      </trkpt>
      <trkpt lat="48.5357" lon="2.01068">
        <ele>129</ele>
        <time>2017-04-29T12:01:18Z</time>
      </trkpt>
      <trkpt lat="48.53581" lon="2.0107">
        <ele>129</ele>
        <time>2017-04-29T12:01:29Z</time>
      </trkpt>
      <trkpt lat="48.53591" lon="2.01076">
        <ele>130</ele>
        <time>2017-04-29T12:01:39Z</time>
      </trkpt>
      <trkpt lat="48.53596" lon="2.01075">
        <ele>130</ele>
        <time>2017-04-29T12:01:44Z</time>
      </trkpt>
      <trkpt lat="48.53617" lon="2.01082">
        <ele>132</ele>
        <time>2017-04-29T12:02:01Z</time>
      </trkpt>
      <trkpt lat="48.53637" lon="2.01091">
        <ele>133</ele>
        <time>2017-04-29T12:02:17Z</time>
      </trkpt>
      <trkpt lat="48.53683" lon="2.01096">
        <ele>134</ele>
        <time>2017-04-29T12:02:54Z</time>
      </trkpt>
      <trkpt lat="48.53719" lon="2.01115">
        <ele>135</ele>
        <time>2017-04-29T12:03:27Z</time>
      </trkpt>
      <trkpt lat="48.53733" lon="2.01127">
        <ele>136</ele>
        <time>2017-04-29T12:03:39Z</time>
      </trkpt>
      <trkpt lat="48.53747" lon="2.01134">
        <ele>136</ele>
        <time>2017-04-29T12:03:52Z</time>
      </trkpt>
      <trkpt lat="48.53752" lon="2.01135">
        <ele>136</ele>
        <time>2017-04-29T12:03:57Z</time>
      </trkpt>
      <trkpt lat="48.53782" lon="2.01156">
        <ele>139</ele>
        <time>2017-04-29T12:04:28Z</time>
      </trkpt>
      <trkpt lat="48.53818" lon="2.01176">
        <ele>144</ele>
        <time>2017-04-29T12:05:04Z</time>
      </trkpt>
      <trkpt lat="48.53846" lon="2.01189">
        <ele>146</ele>
        <time>2017-04-29T12:05:28Z</time>
      </trkpt>
      <trkpt lat="48.53856" lon="2.01187">
        <ele>147</ele>
        <time>2017-04-29T12:05:35Z</time>
      </trkpt>
      <trkpt lat="48.53864" lon="2.01193">
        <ele>149</ele>
        <time>2017-04-29T12:05:44Z</time>
      </trkpt>
      <trkpt lat="48.53873" lon="2.01199">
        <ele>149</ele>
        <time>2017-04-29T12:05:52Z</time>
      </trkpt>
      <trkpt lat="48.53882" lon="2.01202">
        <ele>151</ele>
        <time>2017-04-29T12:06:04Z</time>
      </trkpt>
      <trkpt lat="48.5389" lon="2.01209">
        <ele>152</ele>
        <time>2017-04-29T12:06:13Z</time>
      </trkpt>
      <trkpt lat="48.53907" lon="2.01219">
        <ele>155</ele>
        <time>2017-04-29T12:06:38Z</time>
      </trkpt>
      <trkpt lat="48.53917" lon="2.01219">
        <ele>158</ele>
        <time>2017-04-29T12:06:51Z</time>
      </trkpt>
      <trkpt lat="48.53926" lon="2.01217">
        <ele>159</ele>
        <time>2017-04-29T12:07:00Z</time>
      </trkpt>
      <trkpt lat="48.53936" lon="2.01219">
        <ele>161</ele>
        <time>2017-04-29T12:07:45Z</time>
      </trkpt>
      <trkpt lat="48.53934" lon="2.01233">
        <ele>161</ele>
        <time>2017-04-29T12:09:25Z</time>
      </trkpt>
      <trkpt lat="48.53934" lon="2.01241">
        <ele>161</ele>
        <time>2017-04-29T12:09:31Z</time>
      </trkpt>
      <trkpt lat="48.5393" lon="2.01255">
        <ele>161</ele>
        <time>2017-04-29T12:09:41Z</time>
      </trkpt>
      <trkpt lat="48.53928" lon="2.01262">
        <ele>161</ele>
        <time>2017-04-29T12:09:46Z</time>
      </trkpt>
      <trkpt lat="48.53925" lon="2.01293">
        <ele>161</ele>
        <time>2017-04-29T12:10:03Z</time>
      </trkpt>
      <trkpt lat="48.53926" lon="2.01308">
        <ele>162</ele>
        <time>2017-04-29T12:10:11Z</time>
      </trkpt>
      <trkpt lat="48.53926" lon="2.01345">
        <ele>165</ele>
        <time>2017-04-29T12:10:31Z</time>
      </trkpt>
      <trkpt lat="48.53927" lon="2.01352">
        <ele>165</ele>
        <time>2017-04-29T12:10:35Z</time>
      </trkpt>
      <trkpt lat="48.53928" lon="2.01414">
        <ele>166</ele>
        <time>2017-04-29T12:11:08Z</time>
      </trkpt>
      <trkpt lat="48.53928" lon="2.01421">
        <ele>166</ele>
        <time>2017-04-29T12:11:12Z</time>
      </trkpt>
      <trkpt lat="48.53929" lon="2.01444">
        <ele>166</ele>
        <time>2017-04-29T12:11:24Z</time>
      </trkpt>
      <trkpt lat="48.53928" lon="2.01476">
        <ele>166</ele>
        <time>2017-04-29T12:11:41Z</time>
      </trkpt>
      <trkpt lat="48.53928" lon="2.01483">
        <ele>166</ele>
        <time>2017-04-29T12:11:45Z</time>
      </trkpt>
      <trkpt lat="48.53927" lon="2.0149">
        <ele>166</ele>
        <time>2017-04-29T12:11:49Z</time>
      </trkpt>
      <trkpt lat="48.53926" lon="2.01498">
        <ele>166</ele>
        <time>2017-04-29T12:11:53Z</time>
      </trkpt>
      <trkpt lat="48.53925" lon="2.01505">
        <ele>166</ele>
        <time>2017-04-29T12:11:57Z</time>
      </trkpt>
      <trkpt lat="48.53924" lon="2.01512">
        <ele>166</ele>
        <time>2017-04-29T12:12:01Z</time>
      </trkpt>
      <trkpt lat="48.53921" lon="2.01527">
        <ele>166</ele>
        <time>2017-04-29T12:12:09Z</time>
      </trkpt>
      <trkpt lat="48.53913" lon="2.01581">
        <ele>168</ele>
        <time>2017-04-29T12:12:40Z</time>
      </trkpt>
      <trkpt lat="48.53912" lon="2.01644">
        <ele>167</ele>
        <time>2017-04-29T12:13:12Z</time>
      </trkpt>
      <trkpt lat="48.53913" lon="2.01652">
        <ele>167</ele>
        <time>2017-04-29T12:13:16Z</time>
      </trkpt>
      <trkpt lat="48.53913" lon="2.01659">
        <ele>167</ele>
        <time>2017-04-29T12:13:20Z</time>
      </trkpt>
      <trkpt lat="48.53912" lon="2.01682">
        <ele>166</ele>
        <time>2017-04-29T12:13:34Z</time>
      </trkpt>
      <trkpt lat="48.53911" lon="2.01689">
        <ele>167</ele>
        <time>2017-04-29T12:13:38Z</time>
      </trkpt>
      <trkpt lat="48.53911" lon="2.01696">
        <ele>166</ele>
        <time>2017-04-29T12:13:43Z</time>
      </trkpt>
      <trkpt lat="48.53916" lon="2.01696">
        <ele>167</ele>
        <time>2017-04-29T12:13:50Z</time>
      </trkpt>
      <trkpt lat="48.53915" lon="2.01703">
        <ele>167</ele>
        <time>2017-04-29T12:14:09Z</time>
      </trkpt>
      <trkpt lat="48.53918" lon="2.01709">
        <ele>167</ele>
        <time>2017-04-29T12:14:15Z</time>
      </trkpt>
      <trkpt lat="48.53918" lon="2.01717">
        <ele>167</ele>
        <time>2017-04-29T12:14:20Z</time>
      </trkpt>
      <trkpt lat="48.53918" lon="2.01739">
        <ele>167</ele>
        <time>2017-04-29T12:14:35Z</time>
      </trkpt>
      <trkpt lat="48.53917" lon="2.01755">
        <ele>166</ele>
        <time>2017-04-29T12:14:44Z</time>
      </trkpt>
      <trkpt lat="48.53915" lon="2.01788">
        <ele>166</ele>
        <time>2017-04-29T12:15:01Z</time>
      </trkpt>
      <trkpt lat="48.53902" lon="2.01849">
        <ele>167</ele>
        <time>2017-04-29T12:15:34Z</time>
      </trkpt>
      <trkpt lat="48.53896" lon="2.0187">
        <ele>167</ele>
        <time>2017-04-29T12:15:46Z</time>
      </trkpt>
      <trkpt lat="48.53894" lon="2.01879">
        <ele>167</ele>
        <time>2017-04-29T12:15:50Z</time>
      </trkpt>
      <trkpt lat="48.53877" lon="2.01924">
        <ele>167</ele>
        <time>2017-04-29T12:16:20Z</time>
      </trkpt>
      <trkpt lat="48.53871" lon="2.01936">
        <ele>167</ele>
        <time>2017-04-29T12:16:28Z</time>
      </trkpt>
      <trkpt lat="48.53858" lon="2.0198">
        <ele>165</ele>
        <time>2017-04-29T12:16:51Z</time>
      </trkpt>
      <trkpt lat="48.53849" lon="2.0201">
        <ele>165</ele>
        <time>2017-04-29T12:17:08Z</time>
      </trkpt>
      <trkpt lat="48.53843" lon="2.02021">
        <ele>166</ele>
        <time>2017-04-29T12:17:16Z</time>
      </trkpt>
      <trkpt lat="48.53827" lon="2.02081">
        <ele>163</ele>
        <time>2017-04-29T12:17:48Z</time>
      </trkpt>
      <trkpt lat="48.53823" lon="2.02095">
        <ele>163</ele>
        <time>2017-04-29T12:17:56Z</time>
      </trkpt>
      <trkpt lat="48.53809" lon="2.02155">
        <ele>163</ele>
        <time>2017-04-29T12:18:28Z</time>
      </trkpt>
      <trkpt lat="48.53794" lon="2.02215">
        <ele>163</ele>
        <time>2017-04-29T12:19:00Z</time>
      </trkpt>
      <trkpt lat="48.53781" lon="2.02275">
        <ele>163</ele>
        <time>2017-04-29T12:19:32Z</time>
      </trkpt>
      <trkpt lat="48.53776" lon="2.02296">
        <ele>163</ele>
        <time>2017-04-29T12:19:44Z</time>
      </trkpt>
      <trkpt lat="48.53774" lon="2.02303">
        <ele>163</ele>
        <time>2017-04-29T12:19:48Z</time>
      </trkpt>
      <trkpt lat="48.53758" lon="2.02361">
        <ele>163</ele>
        <time>2017-04-29T12:20:20Z</time>
      </trkpt>
      <trkpt lat="48.53754" lon="2.02382">
        <ele>163</ele>
        <time>2017-04-29T12:20:32Z</time>
      </trkpt>
      <trkpt lat="48.53739" lon="2.0244">
        <ele>163</ele>
        <time>2017-04-29T12:21:04Z</time>
      </trkpt>
      <trkpt lat="48.53734" lon="2.02468">
        <ele>162</ele>
        <time>2017-04-29T12:21:20Z</time>
      </trkpt>
      <trkpt lat="48.53732" lon="2.02474">
        <ele>162</ele>
        <time>2017-04-29T12:21:24Z</time>
      </trkpt>
      <trkpt lat="48.53727" lon="2.0247">
        <ele>163</ele>
        <time>2017-04-29T12:21:28Z</time>
      </trkpt>
      <trkpt lat="48.53718" lon="2.0245">
        <ele>163</ele>
        <time>2017-04-29T12:21:39Z</time>
      </trkpt>
      <trkpt lat="48.53704" lon="2.02409">
        <ele>163</ele>
        <time>2017-04-29T12:22:04Z</time>
      </trkpt>
      <trkpt lat="48.53693" lon="2.02393">
        <ele>163</ele>
        <time>2017-04-29T12:22:19Z</time>
      </trkpt>
      <trkpt lat="48.53688" lon="2.0239">
        <ele>163</ele>
        <time>2017-04-29T12:22:24Z</time>
      </trkpt>
      <trkpt lat="48.53673" lon="2.02385">
        <ele>163</ele>
        <time>2017-04-29T12:22:34Z</time>
      </trkpt>
      <trkpt lat="48.5367" lon="2.0238">
        <ele>163</ele>
        <time>2017-04-29T12:22:48Z</time>
      </trkpt>
      <trkpt lat="48.5366" lon="2.02378">
        <ele>163</ele>
        <time>2017-04-29T12:22:58Z</time>
      </trkpt>
      <trkpt lat="48.53639" lon="2.02359">
        <ele>163</ele>
        <time>2017-04-29T12:23:22Z</time>
      </trkpt>
      <trkpt lat="48.53606" lon="2.02352">
        <ele>162</ele>
        <time>2017-04-29T12:23:52Z</time>
      </trkpt>
      <trkpt lat="48.53595" lon="2.02355">
        <ele>160</ele>
        <time>2017-04-29T12:24:01Z</time>
      </trkpt>
      <trkpt lat="48.5359" lon="2.02358">
        <ele>160</ele>
        <time>2017-04-29T12:24:05Z</time>
      </trkpt>
      <trkpt lat="48.53585" lon="2.02358">
        <ele>159</ele>
        <time>2017-04-29T12:24:09Z</time>
      </trkpt>
      <trkpt lat="48.5358" lon="2.02361">
        <ele>159</ele>
        <time>2017-04-29T12:24:13Z</time>
      </trkpt>
      <trkpt lat="48.53577" lon="2.02366">
        <ele>158</ele>
        <time>2017-04-29T12:24:16Z</time>
      </trkpt>
      <trkpt lat="48.53573" lon="2.0237">
        <ele>157</ele>
        <time>2017-04-29T12:24:21Z</time>
      </trkpt>
      <trkpt lat="48.53559" lon="2.02375">
        <ele>155</ele>
        <time>2017-04-29T12:24:34Z</time>
      </trkpt>
      <trkpt lat="48.5356" lon="2.02386">
        <ele>152</ele>
        <time>2017-04-29T12:24:53Z</time>
      </trkpt>
      <trkpt lat="48.53552" lon="2.02395">
        <ele>150</ele>
        <time>2017-04-29T12:25:02Z</time>
      </trkpt>
      <trkpt lat="48.53547" lon="2.02399">
        <ele>149</ele>
        <time>2017-04-29T12:25:07Z</time>
      </trkpt>
      <trkpt lat="48.53543" lon="2.024">
        <ele>148</ele>
        <time>2017-04-29T12:25:11Z</time>
      </trkpt>
      <trkpt lat="48.53535" lon="2.02413">
        <ele>146</ele>
        <time>2017-04-29T12:25:23Z</time>
      </trkpt>
      <trkpt lat="48.53531" lon="2.02416">
        <ele>146</ele>
        <time>2017-04-29T12:25:29Z</time>
      </trkpt>
      <trkpt lat="48.53528" lon="2.02422">
        <ele>145</ele>
        <time>2017-04-29T12:25:35Z</time>
      </trkpt>
      <trkpt lat="48.53522" lon="2.02425">
        <ele>144</ele>
        <time>2017-04-29T12:25:39Z</time>
      </trkpt>
      <trkpt lat="48.53513" lon="2.02429">
        <ele>144</ele>
        <time>2017-04-29T12:25:48Z</time>
      </trkpt>
      <trkpt lat="48.53508" lon="2.02432">
        <ele>143</ele>
        <time>2017-04-29T12:25:52Z</time>
      </trkpt>
      <trkpt lat="48.53505" lon="2.02439">
        <ele>143</ele>
        <time>2017-04-29T12:25:56Z</time>
      </trkpt>
      <trkpt lat="48.535" lon="2.02444">
        <ele>143</ele>
        <time>2017-04-29T12:26:00Z</time>
      </trkpt>
      <trkpt lat="48.53496" lon="2.02446">
        <ele>143</ele>
        <time>2017-04-29T12:26:05Z</time>
      </trkpt>
      <trkpt lat="48.53482" lon="2.02458">
        <ele>142</ele>
        <time>2017-04-29T12:26:18Z</time>
      </trkpt>
      <trkpt lat="48.53439" lon="2.02477">
        <ele>140</ele>
        <time>2017-04-29T12:26:52Z</time>
      </trkpt>
      <trkpt lat="48.53431" lon="2.02484">
        <ele>139</ele>
        <time>2017-04-29T12:27:01Z</time>
      </trkpt>
      <trkpt lat="48.53426" lon="2.02486">
        <ele>139</ele>
        <time>2017-04-29T12:27:05Z</time>
      </trkpt>
      <trkpt lat="48.53394" lon="2.02507">
        <ele>136</ele>
        <time>2017-04-29T12:27:39Z</time>
      </trkpt>
      <trkpt lat="48.53384" lon="2.0251">
        <ele>136</ele>
        <time>2017-04-29T12:27:48Z</time>
      </trkpt>
      <trkpt lat="48.53379" lon="2.02509">
        <ele>135</ele>
        <time>2017-04-29T12:27:52Z</time>
      </trkpt>
      <trkpt lat="48.53375" lon="2.02503">
        <ele>135</ele>
        <time>2017-04-29T12:27:56Z</time>
      </trkpt>
      <trkpt lat="48.53373" lon="2.02496">
        <ele>135</ele>
        <time>2017-04-29T12:28:00Z</time>
      </trkpt>
      <trkpt lat="48.53372" lon="2.02489">
        <ele>135</ele>
        <time>2017-04-29T12:28:04Z</time>
      </trkpt>
      <trkpt lat="48.53368" lon="2.02485">
        <ele>134</ele>
        <time>2017-04-29T12:28:08Z</time>
      </trkpt>
      <trkpt lat="48.53345" lon="2.02494">
        <ele>132</ele>
        <time>2017-04-29T12:28:29Z</time>
      </trkpt>
      <trkpt lat="48.53327" lon="2.02505">
        <ele>131</ele>
        <time>2017-04-29T12:28:46Z</time>
      </trkpt>
      <trkpt lat="48.53312" lon="2.02508">
        <ele>130</ele>
        <time>2017-04-29T12:28:58Z</time>
      </trkpt>
      <trkpt lat="48.53307" lon="2.02513">
        <ele>129</ele>
        <time>2017-04-29T12:29:03Z</time>
      </trkpt>
      <trkpt lat="48.53303" lon="2.02515">
        <ele>129</ele>
        <time>2017-04-29T12:29:08Z</time>
      </trkpt>
      <trkpt lat="48.53297" lon="2.02515">
        <ele>128</ele>
        <time>2017-04-29T12:29:12Z</time>
      </trkpt>
      <trkpt lat="48.53293" lon="2.02517">
        <ele>128</ele>
        <time>2017-04-29T12:29:17Z</time>
      </trkpt>
      <trkpt lat="48.53288" lon="2.02518">
        <ele>127</ele>
        <time>2017-04-29T12:29:20Z</time>
      </trkpt>
      <trkpt lat="48.53273" lon="2.02524">
        <ele>126</ele>
        <time>2017-04-29T12:29:32Z</time>
      </trkpt>
      <trkpt lat="48.5325" lon="2.02523">
        <ele>125</ele>
        <time>2017-04-29T12:29:50Z</time>
      </trkpt>
      <trkpt lat="48.5324" lon="2.02525">
        <ele>124</ele>
        <time>2017-04-29T12:29:59Z</time>
      </trkpt>
      <trkpt lat="48.53232" lon="2.02518">
        <ele>123</ele>
        <time>2017-04-29T12:30:13Z</time>
      </trkpt>
      <trkpt lat="48.53217" lon="2.02519">
        <ele>122</ele>
        <time>2017-04-29T12:30:26Z</time>
      </trkpt>
      <trkpt lat="48.53203" lon="2.02525">
        <ele>120</ele>
        <time>2017-04-29T12:30:38Z</time>
      </trkpt>
      <trkpt lat="48.53174" lon="2.0253">
        <ele>117</ele>
        <time>2017-04-29T12:31:05Z</time>
      </trkpt>
      <trkpt lat="48.53171" lon="2.02536">
        <ele>117</ele>
        <time>2017-04-29T12:31:11Z</time>
      </trkpt>
      <trkpt lat="48.53166" lon="2.02548">
        <ele>116</ele>
        <time>2017-04-29T12:31:19Z</time>
      </trkpt>
      <trkpt lat="48.53163" lon="2.02564">
        <ele>116</ele>
        <time>2017-04-29T12:31:27Z</time>
      </trkpt>
      <trkpt lat="48.53168" lon="2.02601">
        <ele>115</ele>
        <time>2017-04-29T12:31:47Z</time>
      </trkpt>
      <trkpt lat="48.53169" lon="2.02608">
        <ele>116</ele>
        <time>2017-04-29T12:31:51Z</time>
      </trkpt>
      <trkpt lat="48.53169" lon="2.02623">
        <ele>116</ele>
        <time>2017-04-29T12:32:00Z</time>
      </trkpt>
      <trkpt lat="48.5317" lon="2.02631">
        <ele>116</ele>
        <time>2017-04-29T12:32:05Z</time>
      </trkpt>
      <trkpt lat="48.53171" lon="2.02637">
        <ele>116</ele>
        <time>2017-04-29T12:32:09Z</time>
      </trkpt>
      <trkpt lat="48.5317" lon="2.02654">
        <ele>116</ele>
        <time>2017-04-29T12:32:19Z</time>
      </trkpt>
      <trkpt lat="48.53171" lon="2.0267">
        <ele>116</ele>
        <time>2017-04-29T12:32:27Z</time>
      </trkpt>
      <trkpt lat="48.5317" lon="2.02684">
        <ele>115</ele>
        <time>2017-04-29T12:32:35Z</time>
      </trkpt>
      <trkpt lat="48.53171" lon="2.02699">
        <ele>115</ele>
        <time>2017-04-29T12:32:44Z</time>
      </trkpt>
      <trkpt lat="48.5317" lon="2.02722">
        <ele>115</ele>
        <time>2017-04-29T12:32:57Z</time>
      </trkpt>
      <trkpt lat="48.53152" lon="2.02755">
        <ele>112</ele>
        <time>2017-04-29T12:33:23Z</time>
      </trkpt>
      <trkpt lat="48.53155" lon="2.02747">
        <ele>112</ele>
        <time>2017-04-29T12:34:01Z</time>
      </trkpt>
      <trkpt lat="48.53171" lon="2.02753">
        <ele>113</ele>
        <time>2017-04-29T12:34:36Z</time>
      </trkpt>
      <trkpt lat="48.5318" lon="2.02754">
        <ele>114</ele>
        <time>2017-04-29T12:34:42Z</time>
      </trkpt>
      <trkpt lat="48.53189" lon="2.02761">
        <ele>114</ele>
        <time>2017-04-29T12:34:50Z</time>
      </trkpt>
      <trkpt lat="48.53196" lon="2.02771">
        <ele>115</ele>
        <time>2017-04-29T12:34:58Z</time>
      </trkpt>
      <trkpt lat="48.53201" lon="2.02782">
        <ele>116</ele>
        <time>2017-04-29T12:35:07Z</time>
      </trkpt>
      <trkpt lat="48.53207" lon="2.02811">
        <ele>117</ele>
        <time>2017-04-29T12:35:27Z</time>
      </trkpt>
      <trkpt lat="48.53211" lon="2.02817">
        <ele>116</ele>
        <time>2017-04-29T12:35:32Z</time>
      </trkpt>
      <trkpt lat="48.53213" lon="2.02824">
        <ele>114</ele>
        <time>2017-04-29T12:35:37Z</time>
      </trkpt>
      <trkpt lat="48.53219" lon="2.02835">
        <ele>112</ele>
        <time>2017-04-29T12:35:47Z</time>
      </trkpt>
      <trkpt lat="48.5324" lon="2.02878">
        <ele>112</ele>
        <time>2017-04-29T12:36:17Z</time>
      </trkpt>
      <trkpt lat="48.53242" lon="2.02885">
        <ele>112</ele>
        <time>2017-04-29T12:36:21Z</time>
      </trkpt>
      <trkpt lat="48.5324" lon="2.02894">
        <ele>113</ele>
        <time>2017-04-29T12:36:27Z</time>
      </trkpt>
      <trkpt lat="48.53251" lon="2.0291">
        <ele>113</ele>
        <time>2017-04-29T12:36:35Z</time>
      </trkpt>
      <trkpt lat="48.53267" lon="2.02954">
        <ele>115</ele>
        <time>2017-04-29T12:37:04Z</time>
      </trkpt>
      <trkpt lat="48.53273" lon="2.02964">
        <ele>115</ele>
        <time>2017-04-29T12:37:13Z</time>
      </trkpt>
      <trkpt lat="48.5328" lon="2.02989">
        <ele>117</ele>
        <time>2017-04-29T12:37:30Z</time>
      </trkpt>
      <trkpt lat="48.53287" lon="2.02999">
        <ele>117</ele>
        <time>2017-04-29T12:37:38Z</time>
      </trkpt>
      <trkpt lat="48.53298" lon="2.03007">
        <ele>118</ele>
        <time>2017-04-29T12:37:42Z</time>
      </trkpt>
      <trkpt lat="48.53292" lon="2.03018">
        <ele>118</ele>
        <time>2017-04-29T12:37:58Z</time>
      </trkpt>
      <trkpt lat="48.53296" lon="2.03029">
        <ele>119</ele>
        <time>2017-04-29T12:42:10Z</time>
      </trkpt>
      <trkpt lat="48.53302" lon="2.03041">
        <ele>120</ele>
        <time>2017-04-29T12:42:19Z</time>
      </trkpt>
      <trkpt lat="48.53305" lon="2.03055">
        <ele>120</ele>
        <time>2017-04-29T12:42:27Z</time>
      </trkpt>
      <trkpt lat="48.53318" lon="2.03076">
        <ele>121</ele>
        <time>2017-04-29T12:42:47Z</time>
      </trkpt>
      <trkpt lat="48.53326" lon="2.03083">
        <ele>122</ele>
        <time>2017-04-29T12:43:00Z</time>
      </trkpt>
      <trkpt lat="48.5333" lon="2.03096">
        <ele>123</ele>
        <time>2017-04-29T12:43:11Z</time>
      </trkpt>
      <trkpt lat="48.53334" lon="2.03109">
        <ele>124</ele>
        <time>2017-04-29T12:43:26Z</time>
      </trkpt>
      <trkpt lat="48.5334" lon="2.03118">
        <ele>125</ele>
        <time>2017-04-29T12:43:38Z</time>
      </trkpt>
      <trkpt lat="48.5335" lon="2.03159">
        <ele>128</ele>
        <time>2017-04-29T12:44:06Z</time>
      </trkpt>
      <trkpt lat="48.53358" lon="2.03164">
        <ele>129</ele>
        <time>2017-04-29T12:44:15Z</time>
      </trkpt>
      <trkpt lat="48.53363" lon="2.03176">
        <ele>130</ele>
        <time>2017-04-29T12:44:26Z</time>
      </trkpt>
      <trkpt lat="48.53363" lon="2.03192">
        <ele>131</ele>
        <time>2017-04-29T12:44:35Z</time>
      </trkpt>
      <trkpt lat="48.53368" lon="2.03205">
        <ele>133</ele>
        <time>2017-04-29T12:44:41Z</time>
      </trkpt>
      <trkpt lat="48.53381" lon="2.03224">
        <ele>137</ele>
        <time>2017-04-29T12:45:08Z</time>
      </trkpt>
      <trkpt lat="48.5338" lon="2.03238">
        <ele>138</ele>
        <time>2017-04-29T12:45:15Z</time>
      </trkpt>
      <trkpt lat="48.53386" lon="2.03249">
        <ele>141</ele>
        <time>2017-04-29T12:45:31Z</time>
      </trkpt>
      <trkpt lat="48.53385" lon="2.03263">
        <ele>143</ele>
        <time>2017-04-29T12:45:47Z</time>
      </trkpt>
      <trkpt lat="48.53393" lon="2.03271">
        <ele>145</ele>
        <time>2017-04-29T12:45:58Z</time>
      </trkpt>
      <trkpt lat="48.53399" lon="2.03283">
        <ele>146</ele>
        <time>2017-04-29T12:46:09Z</time>
      </trkpt>
      <trkpt lat="48.53402" lon="2.03296">
        <ele>147</ele>
        <time>2017-04-29T12:46:22Z</time>
      </trkpt>
      <trkpt lat="48.53408" lon="2.03308">
        <ele>148</ele>
        <time>2017-04-29T12:46:35Z</time>
      </trkpt>
      <trkpt lat="48.53414" lon="2.03319">
        <ele>149</ele>
        <time>2017-04-29T12:46:48Z</time>
      </trkpt>
      <trkpt lat="48.53421" lon="2.03345">
        <ele>152</ele>
        <time>2017-04-29T12:47:15Z</time>
      </trkpt>
      <trkpt lat="48.53434" lon="2.03364">
        <ele>153</ele>
        <time>2017-04-29T12:47:35Z</time>
      </trkpt>
      <trkpt lat="48.53465" lon="2.03395">
        <ele>154</ele>
        <time>2017-04-29T12:48:07Z</time>
      </trkpt>
      <trkpt lat="48.53476" lon="2.03413">
        <ele>154</ele>
        <time>2017-04-29T12:48:26Z</time>
      </trkpt>
      <trkpt lat="48.53491" lon="2.03432">
        <ele>154</ele>
        <time>2017-04-29T12:48:47Z</time>
      </trkpt>
      <trkpt lat="48.53495" lon="2.03439">
        <ele>154</ele>
        <time>2017-04-29T12:48:53Z</time>
      </trkpt>
      <trkpt lat="48.53499" lon="2.03443">
        <ele>154</ele>
        <time>2017-04-29T12:48:57Z</time>
      </trkpt>
      <trkpt lat="48.53514" lon="2.03461">
        <ele>150</ele>
        <time>2017-04-29T12:49:17Z</time>
      </trkpt>
      <trkpt lat="48.53538" lon="2.03488">
        <ele>150</ele>
        <time>2017-04-29T12:49:48Z</time>
      </trkpt>
      <trkpt lat="48.53541" lon="2.03494">
        <ele>150</ele>
        <time>2017-04-29T12:49:53Z</time>
      </trkpt>
      <trkpt lat="48.53545" lon="2.03498">
        <ele>151</ele>
        <time>2017-04-29T12:49:57Z</time>
      </trkpt>
      <trkpt lat="48.53548" lon="2.03504">
        <ele>151</ele>
        <time>2017-04-29T12:50:03Z</time>
      </trkpt>
      <trkpt lat="48.53558" lon="2.03519">
        <ele>149</ele>
        <time>2017-04-29T12:50:16Z</time>
      </trkpt>
      <trkpt lat="48.53574" lon="2.0354">
        <ele>149</ele>
        <time>2017-04-29T12:50:35Z</time>
      </trkpt>
      <trkpt lat="48.53583" lon="2.03549">
        <ele>149</ele>
        <time>2017-04-29T12:50:45Z</time>
      </trkpt>
      <trkpt lat="48.53586" lon="2.03554">
        <ele>149</ele>
        <time>2017-04-29T12:50:50Z</time>
      </trkpt>
      <trkpt lat="48.53587" lon="2.03561">
        <ele>149</ele>
        <time>2017-04-29T12:50:55Z</time>
      </trkpt>
      <trkpt lat="48.53595" lon="2.03572">
        <ele>149</ele>
        <time>2017-04-29T12:51:05Z</time>
      </trkpt>
      <trkpt lat="48.53618" lon="2.03622">
        <ele>149</ele>
        <time>2017-04-29T12:51:39Z</time>
      </trkpt>
      <trkpt lat="48.53616" lon="2.03629">
        <ele>149</ele>
        <time>2017-04-29T12:51:43Z</time>
      </trkpt>
      <trkpt lat="48.53602" lon="2.03638">
        <ele>148</ele>
        <time>2017-04-29T12:51:55Z</time>
      </trkpt>
      <trkpt lat="48.53587" lon="2.03647">
        <ele>148</ele>
        <time>2017-04-29T12:52:10Z</time>
      </trkpt>
      <trkpt lat="48.53583" lon="2.03651">
        <ele>148</ele>
        <time>2017-04-29T12:52:14Z</time>
      </trkpt>
      <trkpt lat="48.53573" lon="2.03657">
        <ele>147</ele>
        <time>2017-04-29T12:52:23Z</time>
      </trkpt>
      <trkpt lat="48.53547" lon="2.03678">
        <ele>148</ele>
        <time>2017-04-29T12:52:48Z</time>
      </trkpt>
      <trkpt lat="48.53541" lon="2.03689">
        <ele>148</ele>
        <time>2017-04-29T12:52:56Z</time>
      </trkpt>
      <trkpt lat="48.53532" lon="2.03725">
        <ele>147</ele>
        <time>2017-04-29T12:53:19Z</time>
      </trkpt>
      <trkpt lat="48.53529" lon="2.03754">
        <ele>150</ele>
        <time>2017-04-29T12:53:42Z</time>
      </trkpt>
      <trkpt lat="48.5353" lon="2.03808">
        <ele>151</ele>
        <time>2017-04-29T12:54:15Z</time>
      </trkpt>
      <trkpt lat="48.53531" lon="2.03846">
        <ele>151</ele>
        <time>2017-04-29T12:54:36Z</time>
      </trkpt>
      <trkpt lat="48.53527" lon="2.039">
        <ele>151</ele>
        <time>2017-04-29T12:55:09Z</time>
      </trkpt>
      <trkpt lat="48.53525" lon="2.03937">
        <ele>151</ele>
        <time>2017-04-29T12:55:31Z</time>
      </trkpt>
      <trkpt lat="48.53526" lon="2.03951">
        <ele>151</ele>
        <time>2017-04-29T12:55:39Z</time>
      </trkpt>
      <trkpt lat="48.5353" lon="2.03973">
        <ele>151</ele>
        <time>2017-04-29T12:55:51Z</time>
      </trkpt>
      <trkpt lat="48.53546" lon="2.04022">
        <ele>150</ele>
        <time>2017-04-29T12:56:25Z</time>
      </trkpt>
      <trkpt lat="48.53565" lon="2.04073">
        <ele>149</ele>
        <time>2017-04-29T12:56:58Z</time>
      </trkpt>
      <trkpt lat="48.53585" lon="2.04123">
        <ele>149</ele>
        <time>2017-04-29T12:57:31Z</time>
      </trkpt>
      <trkpt lat="48.53592" lon="2.04142">
        <ele>149</ele>
        <time>2017-04-29T12:57:44Z</time>
      </trkpt>
      <trkpt lat="48.53608" lon="2.0419">
        <ele>149</ele>
        <time>2017-04-29T12:58:16Z</time>
      </trkpt>
      <trkpt lat="48.53612" lon="2.04206">
        <ele>149</ele>
        <time>2017-04-29T12:58:26Z</time>
      </trkpt>
      <trkpt lat="48.53618" lon="2.04227">
        <ele>149</ele>
        <time>2017-04-29T12:58:39Z</time>
      </trkpt>
      <trkpt lat="48.53627" lon="2.04278">
        <ele>150</ele>
        <time>2017-04-29T12:59:10Z</time>
      </trkpt>
      <trkpt lat="48.53637" lon="2.04319">
        <ele>150</ele>
        <time>2017-04-29T12:59:34Z</time>
      </trkpt>
      <trkpt lat="48.53641" lon="2.04374">
        <ele>151</ele>
        <time>2017-04-29T13:00:06Z</time>
      </trkpt>
      <trkpt lat="48.5364" lon="2.04382">
        <ele>151</ele>
        <time>2017-04-29T13:00:11Z</time>
      </trkpt>
      <trkpt lat="48.53638" lon="2.04396">
        <ele>151</ele>
        <time>2017-04-29T13:00:21Z</time>
      </trkpt>
      <trkpt lat="48.53637" lon="2.04451">
        <ele>151</ele>
        <time>2017-04-29T13:00:51Z</time>
      </trkpt>
      <trkpt lat="48.53637" lon="2.04496">
        <ele>151</ele>
        <time>2017-04-29T13:01:17Z</time>
      </trkpt>
      <trkpt lat="48.53637" lon="2.04505">
        <ele>151</ele>
        <time>2017-04-29T13:01:22Z</time>
      </trkpt>
      <trkpt lat="48.53638" lon="2.04533">
        <ele>151</ele>
        <time>2017-04-29T13:01:38Z</time>
      </trkpt>
      <trkpt lat="48.53647" lon="2.04593">
        <ele>151</ele>
        <time>2017-04-29T13:02:11Z</time>
      </trkpt>
      <trkpt lat="48.53654" lon="2.0465">
        <ele>150</ele>
        <time>2017-04-29T13:02:43Z</time>
      </trkpt>
      <trkpt lat="48.53662" lon="2.04708">
        <ele>150</ele>
        <time>2017-04-29T13:03:18Z</time>
      </trkpt>
      <trkpt lat="48.53669" lon="2.04738">
        <ele>150</ele>
        <time>2017-04-29T13:03:43Z</time>
      </trkpt>
      <trkpt lat="48.5367" lon="2.04752">
        <ele>149</ele>
        <time>2017-04-29T13:04:39Z</time>
      </trkpt>
      <trkpt lat="48.53669" lon="2.04759">
        <ele>149</ele>
        <time>2017-04-29T13:04:46Z</time>
      </trkpt>
      <trkpt lat="48.5367" lon="2.04766">
        <ele>149</ele>
        <time>2017-04-29T13:04:55Z</time>
      </trkpt>
      <trkpt lat="48.53673" lon="2.04788">
        <ele>148</ele>
        <time>2017-04-29T13:05:14Z</time>
      </trkpt>
      <trkpt lat="48.53676" lon="2.04794">
        <ele>148</ele>
        <time>2017-04-29T13:05:19Z</time>
      </trkpt>
      <trkpt lat="48.53681" lon="2.04795">
        <ele>148</ele>
        <time>2017-04-29T13:05:25Z</time>
      </trkpt>
      <trkpt lat="48.5368" lon="2.04801">
        <ele>148</ele>
        <time>2017-04-29T13:06:08Z</time>
      </trkpt>
      <trkpt lat="48.53674" lon="2.0483">
        <ele>148</ele>
        <time>2017-04-29T13:06:27Z</time>
      </trkpt>
      <trkpt lat="48.5367" lon="2.04835">
        <ele>148</ele>
        <time>2017-04-29T13:06:32Z</time>
      </trkpt>
      <trkpt lat="48.53661" lon="2.04868">
        <ele>149</ele>
        <time>2017-04-29T13:07:02Z</time>
      </trkpt>
      <trkpt lat="48.53653" lon="2.04889">
        <ele>148</ele>
        <time>2017-04-29T13:07:18Z</time>
      </trkpt>
      <trkpt lat="48.53649" lon="2.04894">
        <ele>148</ele>
        <time>2017-04-29T13:07:26Z</time>
      </trkpt>
      <trkpt lat="48.53629" lon="2.04939">
        <ele>148</ele>
        <time>2017-04-29T13:07:59Z</time>
      </trkpt>
      <trkpt lat="48.5361" lon="2.04975">
        <ele>147</ele>
        <time>2017-04-29T13:08:30Z</time>
      </trkpt>
      <trkpt lat="48.53602" lon="2.04992">
        <ele>146</ele>
        <time>2017-04-29T13:08:45Z</time>
      </trkpt>
      <trkpt lat="48.53599" lon="2.04996">
        <ele>146</ele>
        <time>2017-04-29T13:08:50Z</time>
      </trkpt>
      <trkpt lat="48.53596" lon="2.05003">
        <ele>146</ele>
        <time>2017-04-29T13:08:55Z</time>
      </trkpt>
      <trkpt lat="48.53582" lon="2.05014">
        <ele>145</ele>
        <time>2017-04-29T13:09:09Z</time>
      </trkpt>
      <trkpt lat="48.53563" lon="2.05024">
        <ele>143</ele>
        <time>2017-04-29T13:09:28Z</time>
      </trkpt>
      <trkpt lat="48.53536" lon="2.05046">
        <ele>140</ele>
        <time>2017-04-29T13:09:58Z</time>
      </trkpt>
      <trkpt lat="48.53527" lon="2.0505">
        <ele>139</ele>
        <time>2017-04-29T13:10:07Z</time>
      </trkpt>
      <trkpt lat="48.53517" lon="2.05049">
        <ele>138</ele>
        <time>2017-04-29T13:10:16Z</time>
      </trkpt>
      <trkpt lat="48.53503" lon="2.05041">
        <ele>136</ele>
        <time>2017-04-29T13:10:29Z</time>
      </trkpt>
      <trkpt lat="48.53495" lon="2.05032">
        <ele>136</ele>
        <time>2017-04-29T13:10:37Z</time>
      </trkpt>
      <trkpt lat="48.53488" lon="2.05021">
        <ele>134</ele>
        <time>2017-04-29T13:10:46Z</time>
      </trkpt>
      <trkpt lat="48.5347" lon="2.04964">
        <ele>129</ele>
        <time>2017-04-29T13:11:21Z</time>
      </trkpt>
      <trkpt lat="48.53453" lon="2.04915">
        <ele>124</ele>
        <time>2017-04-29T13:11:54Z</time>
      </trkpt>
      <trkpt lat="48.53437" lon="2.0487">
        <ele>121</ele>
        <time>2017-04-29T13:12:25Z</time>
      </trkpt>
      <trkpt lat="48.53417" lon="2.04826">
        <ele>116</ele>
        <time>2017-04-29T13:12:59Z</time>
      </trkpt>
      <trkpt lat="48.53407" lon="2.04802">
        <ele>113</ele>
        <time>2017-04-29T13:13:18Z</time>
      </trkpt>
      <trkpt lat="48.53399" lon="2.04793">
        <ele>112</ele>
        <time>2017-04-29T13:13:27Z</time>
      </trkpt>
      <trkpt lat="48.53391" lon="2.04784">
        <ele>111</ele>
        <time>2017-04-29T13:13:36Z</time>
      </trkpt>
      <trkpt lat="48.53359" lon="2.04754">
        <ele>107</ele>
        <time>2017-04-29T13:14:11Z</time>
      </trkpt>
      <trkpt lat="48.5335" lon="2.04748">
        <ele>106</ele>
        <time>2017-04-29T13:14:21Z</time>
      </trkpt>
      <trkpt lat="48.5334" lon="2.04747">
        <ele>106</ele>
        <time>2017-04-29T13:14:30Z</time>
      </trkpt>
      <trkpt lat="48.5333" lon="2.04741">
        <ele>105</ele>
        <time>2017-04-29T13:14:40Z</time>
      </trkpt>
      <trkpt lat="48.53326" lon="2.04737">
        <ele>104</ele>
        <time>2017-04-29T13:14:46Z</time>
      </trkpt>
      <trkpt lat="48.53304" lon="2.04717">
        <ele>103</ele>
        <time>2017-04-29T13:15:09Z</time>
      </trkpt>
      <trkpt lat="48.53295" lon="2.047">
        <ele>102</ele>
        <time>2017-04-29T13:15:23Z</time>
      </trkpt>
      <trkpt lat="48.53288" lon="2.04691">
        <ele>101</ele>
        <time>2017-04-29T13:15:33Z</time>
      </trkpt>
      <trkpt lat="48.53282" lon="2.0468">
        <ele>101</ele>
        <time>2017-04-29T13:15:40Z</time>
      </trkpt>
      <trkpt lat="48.53277" lon="2.04669">
        <ele>100</ele>
        <time>2017-04-29T13:15:49Z</time>
      </trkpt>
      <trkpt lat="48.53273" lon="2.04665">
        <ele>100</ele>
        <time>2017-04-29T13:15:53Z</time>
      </trkpt>
      <trkpt lat="48.5327" lon="2.04659">
        <ele>99</ele>
        <time>2017-04-29T13:15:57Z</time>
      </trkpt>
      <trkpt lat="48.53267" lon="2.04653">
        <ele>99</ele>
        <time>2017-04-29T13:16:02Z</time>
      </trkpt>
      <trkpt lat="48.53263" lon="2.04649">
        <ele>99</ele>
        <time>2017-04-29T13:16:06Z</time>
      </trkpt>
      <trkpt lat="48.53263" lon="2.04626">
        <ele>98</ele>
        <time>2017-04-29T13:16:23Z</time>
      </trkpt>
      <trkpt lat="48.53264" lon="2.04618">
        <ele>98</ele>
        <time>2017-04-29T13:16:29Z</time>
      </trkpt>
      <trkpt lat="48.53262" lon="2.04603">
        <ele>98</ele>
        <time>2017-04-29T13:16:38Z</time>
      </trkpt>
      <trkpt lat="48.53263" lon="2.04588">
        <ele>97</ele>
        <time>2017-04-29T13:16:46Z</time>
      </trkpt>
      <trkpt lat="48.53262" lon="2.04574">
        <ele>97</ele>
        <time>2017-04-29T13:16:54Z</time>
      </trkpt>
      <trkpt lat="48.53259" lon="2.04567">
        <ele>97</ele>
        <time>2017-04-29T13:16:58Z</time>
      </trkpt>
      <trkpt lat="48.53248" lon="2.04559">
        <ele>96</ele>
        <time>2017-04-29T13:17:23Z</time>
      </trkpt>
      <trkpt lat="48.53228" lon="2.04559">
        <ele>96</ele>
        <time>2017-04-29T13:17:42Z</time>
      </trkpt>
      <trkpt lat="48.53191" lon="2.04574">
        <ele>93</ele>
        <time>2017-04-29T13:18:15Z</time>
      </trkpt>
      <trkpt lat="48.53183" lon="2.04581">
        <ele>93</ele>
        <time>2017-04-29T13:18:23Z</time>
      </trkpt>
      <trkpt lat="48.53178" lon="2.04581">
        <ele>92</ele>
        <time>2017-04-29T13:18:27Z</time>
      </trkpt>
      <trkpt lat="48.53174" lon="2.04578">
        <ele>92</ele>
        <time>2017-04-29T13:18:32Z</time>
      </trkpt>
      <trkpt lat="48.53165" lon="2.04585">
        <ele>92</ele>
        <time>2017-04-29T13:18:44Z</time>
      </trkpt>
      <trkpt lat="48.5316" lon="2.04587">
        <ele>92</ele>
        <time>2017-04-29T13:18:49Z</time>
      </trkpt>
      <trkpt lat="48.53152" lon="2.04594">
        <ele>92</ele>
        <time>2017-04-29T13:19:00Z</time>
      </trkpt>
      <trkpt lat="48.53142" lon="2.04595">
        <ele>91</ele>
        <time>2017-04-29T13:19:10Z</time>
      </trkpt>
      <trkpt lat="48.53138" lon="2.04598">
        <ele>91</ele>
        <time>2017-04-29T13:19:14Z</time>
      </trkpt>
      <trkpt lat="48.53133" lon="2.04599">
        <ele>91</ele>
        <time>2017-04-29T13:19:19Z</time>
      </trkpt>
      <trkpt lat="48.53128" lon="2.04601">
        <ele>90</ele>
        <time>2017-04-29T13:19:23Z</time>
      </trkpt>
      <trkpt lat="48.53123" lon="2.04602">
        <ele>90</ele>
        <time>2017-04-29T13:19:28Z</time>
      </trkpt>
      <trkpt lat="48.53119" lon="2.0458">
        <ele>90</ele>
        <time>2017-04-29T13:19:40Z</time>
      </trkpt>
      <trkpt lat="48.53114" lon="2.04578">
        <ele>90</ele>
        <time>2017-04-29T13:19:46Z</time>
      </trkpt>
      <trkpt lat="48.5311" lon="2.04571">
        <ele>90</ele>
        <time>2017-04-29T13:19:52Z</time>
      </trkpt>
      <trkpt lat="48.53109" lon="2.04562">
        <ele>90</ele>
        <time>2017-04-29T13:19:57Z</time>
      </trkpt>
      <trkpt lat="48.53109" lon="2.04548">
        <ele>90</ele>
        <time>2017-04-29T13:20:05Z</time>
      </trkpt>
      <trkpt lat="48.53106" lon="2.04533">
        <ele>90</ele>
        <time>2017-04-29T13:20:14Z</time>
      </trkpt>
      <trkpt lat="48.53103" lon="2.04528">
        <ele>89</ele>
        <time>2017-04-29T13:20:19Z</time>
      </trkpt>
      <trkpt lat="48.53097" lon="2.0453">
        <ele>89</ele>
        <time>2017-04-29T13:20:23Z</time>
      </trkpt>
      <trkpt lat="48.531" lon="2.04535">
        <ele>88</ele>
        <time>2017-04-29T13:20:44Z</time>
      </trkpt>
      <trkpt lat="48.53104" lon="2.04541">
        <ele>89</ele>
        <time>2017-04-29T13:21:19Z</time>
      </trkpt>
      <trkpt lat="48.53105" lon="2.04548">
        <ele>89</ele>
        <time>2017-04-29T13:21:25Z</time>
      </trkpt>
      <trkpt lat="48.53109" lon="2.04554">
        <ele>89</ele>
        <time>2017-04-29T13:21:30Z</time>
      </trkpt>
      <trkpt lat="48.53111" lon="2.0456">
        <ele>89</ele>
        <time>2017-04-29T13:21:35Z</time>
      </trkpt>
      <trkpt lat="48.53113" lon="2.04574">
        <ele>90</ele>
        <time>2017-04-29T13:21:45Z</time>
      </trkpt>
      <trkpt lat="48.5311" lon="2.04578">
        <ele>90</ele>
        <time>2017-04-29T13:21:48Z</time>
      </trkpt>
      <trkpt lat="48.53094" lon="2.04583">
        <ele>89</ele>
        <time>2017-04-29T13:21:58Z</time>
      </trkpt>
      <trkpt lat="48.5309" lon="2.04586">
        <ele>89</ele>
        <time>2017-04-29T13:22:04Z</time>
      </trkpt>
      <trkpt lat="48.53084" lon="2.04588">
        <ele>89</ele>
        <time>2017-04-29T13:22:12Z</time>
      </trkpt>
      <trkpt lat="48.5308" lon="2.04593">
        <ele>89</ele>
        <time>2017-04-29T13:22:17Z</time>
      </trkpt>
      <trkpt lat="48.5307" lon="2.04596">
        <ele>89</ele>
        <time>2017-04-29T13:22:30Z</time>
      </trkpt>
      <trkpt lat="48.53067" lon="2.04602">
        <ele>89</ele>
        <time>2017-04-29T13:22:35Z</time>
      </trkpt>
      <trkpt lat="48.53048" lon="2.04603">
        <ele>88</ele>
        <time>2017-04-29T13:22:52Z</time>
      </trkpt>
      <trkpt lat="48.53043" lon="2.04602">
        <ele>88</ele>
        <time>2017-04-29T13:22:56Z</time>
      </trkpt>
      <trkpt lat="48.53029" lon="2.04606">
        <ele>87</ele>
        <time>2017-04-29T13:23:09Z</time>
      </trkpt>
      <trkpt lat="48.53006" lon="2.04617">
        <ele>88</ele>
        <time>2017-04-29T13:23:30Z</time>
      </trkpt>
      <trkpt lat="48.52997" lon="2.0462">
        <ele>88</ele>
        <time>2017-04-29T13:23:38Z</time>
      </trkpt>
      <trkpt lat="48.52992" lon="2.04621">
        <ele>88</ele>
        <time>2017-04-29T13:23:43Z</time>
      </trkpt>
      <trkpt lat="48.5297" lon="2.04639">
        <ele>89</ele>
        <time>2017-04-29T13:24:07Z</time>
      </trkpt>
      <trkpt lat="48.52966" lon="2.0467">
        <ele>89</ele>
        <time>2017-04-29T13:24:25Z</time>
      </trkpt>
      <trkpt lat="48.52967" lon="2.04683">
        <ele>89</ele>
        <time>2017-04-29T13:24:32Z</time>
      </trkpt>
      <trkpt lat="48.52965" lon="2.04689">
        <ele>90</ele>
        <time>2017-04-29T13:24:38Z</time>
      </trkpt>
      <trkpt lat="48.52963" lon="2.04696">
        <ele>90</ele>
        <time>2017-04-29T13:24:43Z</time>
      </trkpt>
      <trkpt lat="48.52966" lon="2.0475">
        <ele>91</ele>
        <time>2017-04-29T13:25:17Z</time>
      </trkpt>
      <trkpt lat="48.52962" lon="2.04802">
        <ele>90</ele>
        <time>2017-04-29T13:25:48Z</time>
      </trkpt>
      <trkpt lat="48.52958" lon="2.0486">
        <ele>90</ele>
        <time>2017-04-29T13:26:21Z</time>
      </trkpt>
      <trkpt lat="48.52955" lon="2.04919">
        <ele>90</ele>
        <time>2017-04-29T13:26:55Z</time>
      </trkpt>
      <trkpt lat="48.52952" lon="2.04979">
        <ele>89</ele>
        <time>2017-04-29T13:27:29Z</time>
      </trkpt>
      <trkpt lat="48.52947" lon="2.05039">
        <ele>89</ele>
        <time>2017-04-29T13:28:03Z</time>
      </trkpt>
      <trkpt lat="48.52947" lon="2.05093">
        <ele>89</ele>
        <time>2017-04-29T13:28:34Z</time>
      </trkpt>
      <trkpt lat="48.52948" lon="2.05133">
        <ele>89</ele>
        <time>2017-04-29T13:28:57Z</time>
      </trkpt>
      <trkpt lat="48.52945" lon="2.0514">
        <ele>89</ele>
        <time>2017-04-29T13:29:02Z</time>
      </trkpt>
      <trkpt lat="48.52933" lon="2.05151">
        <ele>89</ele>
        <time>2017-04-29T13:29:14Z</time>
      </trkpt>
      <trkpt lat="48.52928" lon="2.05154">
        <ele>89</ele>
        <time>2017-04-29T13:29:19Z</time>
      </trkpt>
      <trkpt lat="48.52893" lon="2.05163">
        <ele>89</ele>
        <time>2017-04-29T13:29:52Z</time>
      </trkpt>
      <trkpt lat="48.52874" lon="2.05166">
        <ele>89</ele>
        <time>2017-04-29T13:30:09Z</time>
      </trkpt>
      <trkpt lat="48.52869" lon="2.05168">
        <ele>89</ele>
        <time>2017-04-29T13:30:14Z</time>
      </trkpt>
      <trkpt lat="48.52833" lon="2.05174">
        <ele>89</ele>
        <time>2017-04-29T13:30:47Z</time>
      </trkpt>
      <trkpt lat="48.52828" lon="2.05176">
        <ele>89</ele>
        <time>2017-04-29T13:30:52Z</time>
      </trkpt>
      <trkpt lat="48.52818" lon="2.05176">
        <ele>89</ele>
        <time>2017-04-29T13:31:00Z</time>
      </trkpt>
      <trkpt lat="48.52783" lon="2.05188">
        <ele>90</ele>
        <time>2017-04-29T13:31:33Z</time>
      </trkpt>
      <trkpt lat="48.52752" lon="2.05197">
        <ele>91</ele>
        <time>2017-04-29T13:32:03Z</time>
      </trkpt>
      <trkpt lat="48.52719" lon="2.05213">
        <ele>92</ele>
        <time>2017-04-29T13:32:34Z</time>
      </trkpt>
      <trkpt lat="48.52686" lon="2.05228">
        <ele>93</ele>
        <time>2017-04-29T13:33:06Z</time>
      </trkpt>
      <trkpt lat="48.52663" lon="2.0524">
        <ele>94</ele>
        <time>2017-04-29T13:33:30Z</time>
      </trkpt>
      <trkpt lat="48.52658" lon="2.0524">
        <ele>94</ele>
        <time>2017-04-29T13:33:36Z</time>
      </trkpt>
      <trkpt lat="48.52658" lon="2.05246">
        <ele>94</ele>
        <time>2017-04-29T13:47:31Z</time>
      </trkpt>
      <trkpt lat="48.52652" lon="2.05247">
        <ele>94</ele>
        <time>2017-04-29T13:48:04Z</time>
      </trkpt>
      <trkpt lat="48.52647" lon="2.05249">
        <ele>94</ele>
        <time>2017-04-29T13:48:11Z</time>
      </trkpt>
      <trkpt lat="48.52617" lon="2.05251">
        <ele>99</ele>
        <time>2017-04-29T13:48:47Z</time>
      </trkpt>
      <trkpt lat="48.52591" lon="2.05249">
        <ele>101</ele>
        <time>2017-04-29T13:49:10Z</time>
      </trkpt>
      <trkpt lat="48.52575" lon="2.05254">
        <ele>102</ele>
        <time>2017-04-29T13:49:23Z</time>
      </trkpt>
      <trkpt lat="48.52539" lon="2.05256">
        <ele>105</ele>
        <time>2017-04-29T13:49:56Z</time>
      </trkpt>
      <trkpt lat="48.52519" lon="2.05257">
        <ele>105</ele>
        <time>2017-04-29T13:50:12Z</time>
      </trkpt>
      <trkpt lat="48.52514" lon="2.05256">
        <ele>106</ele>
        <time>2017-04-29T13:50:17Z</time>
      </trkpt>
      <trkpt lat="48.52488" lon="2.05252">
        <ele>107</ele>
        <time>2017-04-29T13:50:40Z</time>
      </trkpt>
      <trkpt lat="48.52474" lon="2.0525">
        <ele>109</ele>
        <time>2017-04-29T13:50:53Z</time>
      </trkpt>
      <trkpt lat="48.52453" lon="2.05252">
        <ele>111</ele>
        <time>2017-04-29T13:51:10Z</time>
      </trkpt>
      <trkpt lat="48.52437" lon="2.0525">
        <ele>112</ele>
        <time>2017-04-29T13:51:23Z</time>
      </trkpt>
      <trkpt lat="48.52426" lon="2.05251">
        <ele>112</ele>
        <time>2017-04-29T13:51:31Z</time>
      </trkpt>
      <trkpt lat="48.52391" lon="2.05245">
        <ele>113</ele>
        <time>2017-04-29T13:52:01Z</time>
      </trkpt>
      <trkpt lat="48.52387" lon="2.05244">
        <ele>113</ele>
        <time>2017-04-29T13:52:05Z</time>
      </trkpt>
      <trkpt lat="48.52353" lon="2.05243">
        <ele>115</ele>
        <time>2017-04-29T13:52:35Z</time>
      </trkpt>
      <trkpt lat="48.52337" lon="2.05246">
        <ele>115</ele>
        <time>2017-04-29T13:52:49Z</time>
      </trkpt>
      <trkpt lat="48.52309" lon="2.05241">
        <ele>116</ele>
        <time>2017-04-29T13:53:29Z</time>
      </trkpt>
      <trkpt lat="48.52304" lon="2.05238">
        <ele>116</ele>
        <time>2017-04-29T13:53:34Z</time>
      </trkpt>
      <trkpt lat="48.52294" lon="2.05233">
        <ele>117</ele>
        <time>2017-04-29T13:53:43Z</time>
      </trkpt>
      <trkpt lat="48.5229" lon="2.05228">
        <ele>117</ele>
        <time>2017-04-29T13:53:49Z</time>
      </trkpt>
      <trkpt lat="48.52285" lon="2.05226">
        <ele>117</ele>
        <time>2017-04-29T13:53:52Z</time>
      </trkpt>
      <trkpt lat="48.52276" lon="2.05224">
        <ele>117</ele>
        <time>2017-04-29T13:53:58Z</time>
      </trkpt>
      <trkpt lat="48.52266" lon="2.05218">
        <ele>117</ele>
        <time>2017-04-29T13:54:07Z</time>
      </trkpt>
      <trkpt lat="48.52235" lon="2.05194">
        <ele>118</ele>
        <time>2017-04-29T13:54:40Z</time>
      </trkpt>
      <trkpt lat="48.5221" lon="2.05183">
        <ele>120</ele>
        <time>2017-04-29T13:54:59Z</time>
      </trkpt>
      <trkpt lat="48.52209" lon="2.05175">
        <ele>120</ele>
        <time>2017-04-29T13:55:04Z</time>
      </trkpt>
      <trkpt lat="48.52217" lon="2.05146">
        <ele>121</ele>
        <time>2017-04-29T13:55:27Z</time>
      </trkpt>
      <trkpt lat="48.52222" lon="2.05133">
        <ele>121</ele>
        <time>2017-04-29T13:55:36Z</time>
      </trkpt>
      <trkpt lat="48.52229" lon="2.05121">
        <ele>120</ele>
        <time>2017-04-29T13:55:49Z</time>
      </trkpt>
      <trkpt lat="48.52233" lon="2.05116">
        <ele>119</ele>
        <time>2017-04-29T13:55:54Z</time>
      </trkpt>
      <trkpt lat="48.52241" lon="2.05107">
        <ele>118</ele>
        <time>2017-04-29T13:56:04Z</time>
      </trkpt>
      <trkpt lat="48.52263" lon="2.05086">
        <ele>118</ele>
        <time>2017-04-29T13:56:27Z</time>
      </trkpt>
      <trkpt lat="48.52289" lon="2.05031">
        <ele>120</ele>
        <time>2017-04-29T13:57:00Z</time>
      </trkpt>
      <trkpt lat="48.523" lon="2.04995">
        <ele>120</ele>
        <time>2017-04-29T13:57:23Z</time>
      </trkpt>
      <trkpt lat="48.52302" lon="2.04989">
        <ele>120</ele>
        <time>2017-04-29T13:57:27Z</time>
      </trkpt>
      <trkpt lat="48.52306" lon="2.04975">
        <ele>120</ele>
        <time>2017-04-29T13:57:36Z</time>
      </trkpt>
      <trkpt lat="48.52312" lon="2.04962">
        <ele>119</ele>
        <time>2017-04-29T13:57:45Z</time>
      </trkpt>
      <trkpt lat="48.52321" lon="2.04936">
        <ele>119</ele>
        <time>2017-04-29T13:58:07Z</time>
      </trkpt>
      <trkpt lat="48.52328" lon="2.04905">
        <ele>118</ele>
        <time>2017-04-29T13:58:27Z</time>
      </trkpt>
      <trkpt lat="48.5233" lon="2.04898">
        <ele>118</ele>
        <time>2017-04-29T13:58:32Z</time>
      </trkpt>
      <trkpt lat="48.52332" lon="2.0489">
        <ele>119</ele>
        <time>2017-04-29T13:58:37Z</time>
      </trkpt>
      <trkpt lat="48.52336" lon="2.04875">
        <ele>119</ele>
        <time>2017-04-29T13:58:47Z</time>
      </trkpt>
      <trkpt lat="48.52351" lon="2.04818">
        <ele>119</ele>
        <time>2017-04-29T13:59:19Z</time>
      </trkpt>
      <trkpt lat="48.52366" lon="2.04763">
        <ele>118</ele>
        <time>2017-04-29T13:59:51Z</time>
      </trkpt>
      <trkpt lat="48.52373" lon="2.0472">
        <ele>116</ele>
        <time>2017-04-29T14:00:25Z</time>
      </trkpt>
      <trkpt lat="48.52382" lon="2.04663">
        <ele>114</ele>
        <time>2017-04-29T14:00:59Z</time>
      </trkpt>
      <trkpt lat="48.52388" lon="2.04622">
        <ele>112</ele>
        <time>2017-04-29T14:01:23Z</time>
      </trkpt>
      <trkpt lat="48.5239" lon="2.04577">
        <ele>111</ele>
        <time>2017-04-29T14:01:48Z</time>
      </trkpt>
      <trkpt lat="48.52392" lon="2.04563">
        <ele>111</ele>
        <time>2017-04-29T14:01:56Z</time>
      </trkpt>
      <trkpt lat="48.52401" lon="2.04507">
        <ele>109</ele>
        <time>2017-04-29T14:02:29Z</time>
      </trkpt>
      <trkpt lat="48.52405" lon="2.04492">
        <ele>109</ele>
        <time>2017-04-29T14:02:39Z</time>
      </trkpt>
      <trkpt lat="48.52415" lon="2.04434">
        <ele>108</ele>
        <time>2017-04-29T14:03:11Z</time>
      </trkpt>
      <trkpt lat="48.52416" lon="2.04367">
        <ele>107</ele>
        <time>2017-04-29T14:03:47Z</time>
      </trkpt>
      <trkpt lat="48.52419" lon="2.04324">
        <ele>106</ele>
        <time>2017-04-29T14:04:12Z</time>
      </trkpt>
      <trkpt lat="48.52415" lon="2.04265">
        <ele>106</ele>
        <time>2017-04-29T14:04:44Z</time>
      </trkpt>
      <trkpt lat="48.52415" lon="2.04256">
        <ele>105</ele>
        <time>2017-04-29T14:04:48Z</time>
      </trkpt>
      <trkpt lat="48.52418" lon="2.0424">
        <ele>105</ele>
        <time>2017-04-29T14:04:56Z</time>
      </trkpt>
      <trkpt lat="48.52418" lon="2.04233">
        <ele>105</ele>
        <time>2017-04-29T14:05:01Z</time>
      </trkpt>
      <trkpt lat="48.52416" lon="2.04226">
        <ele>105</ele>
        <time>2017-04-29T14:05:04Z</time>
      </trkpt>
      <trkpt lat="48.52418" lon="2.04203">
        <ele>105</ele>
        <time>2017-04-29T14:05:17Z</time>
      </trkpt>
      <trkpt lat="48.52432" lon="2.04141">
        <ele>104</ele>
        <time>2017-04-29T14:05:54Z</time>
      </trkpt>
      <trkpt lat="48.52443" lon="2.04086">
        <ele>104</ele>
        <time>2017-04-29T14:06:27Z</time>
      </trkpt>
      <trkpt lat="48.52449" lon="2.04028">
        <ele>103</ele>
        <time>2017-04-29T14:07:02Z</time>
      </trkpt>
      <trkpt lat="48.52458" lon="2.03977">
        <ele>103</ele>
        <time>2017-04-29T14:07:33Z</time>
      </trkpt>
      <trkpt lat="48.5246" lon="2.03971">
        <ele>102</ele>
        <time>2017-04-29T14:07:38Z</time>
      </trkpt>
      <trkpt lat="48.52461" lon="2.03964">
        <ele>102</ele>
        <time>2017-04-29T14:07:43Z</time>
      </trkpt>
      <trkpt lat="48.52464" lon="2.03957">
        <ele>102</ele>
        <time>2017-04-29T14:07:48Z</time>
      </trkpt>
      <trkpt lat="48.52467" lon="2.0395">
        <ele>101</ele>
        <time>2017-04-29T14:07:53Z</time>
      </trkpt>
      <trkpt lat="48.52476" lon="2.03912">
        <ele>100</ele>
        <time>2017-04-29T14:08:13Z</time>
      </trkpt>
      <trkpt lat="48.52478" lon="2.03906">
        <ele>100</ele>
        <time>2017-04-29T14:08:18Z</time>
      </trkpt>
      <trkpt lat="48.5248" lon="2.03893">
        <ele>100</ele>
        <time>2017-04-29T14:08:26Z</time>
      </trkpt>
      <trkpt lat="48.52498" lon="2.03843">
        <ele>99</ele>
        <time>2017-04-29T14:08:59Z</time>
      </trkpt>
      <trkpt lat="48.52516" lon="2.03797">
        <ele>98</ele>
        <time>2017-04-29T14:09:32Z</time>
      </trkpt>
      <trkpt lat="48.52535" lon="2.03745">
        <ele>96</ele>
        <time>2017-04-29T14:10:06Z</time>
      </trkpt>
      <trkpt lat="48.52552" lon="2.03688">
        <ele>96</ele>
        <time>2017-04-29T14:10:58Z</time>
      </trkpt>
      <trkpt lat="48.52553" lon="2.03681">
        <ele>96</ele>
        <time>2017-04-29T14:11:03Z</time>
      </trkpt>
      <trkpt lat="48.5256" lon="2.03661">
        <ele>96</ele>
        <time>2017-04-29T14:11:19Z</time>
      </trkpt>
      <trkpt lat="48.52569" lon="2.03626">
        <ele>95</ele>
        <time>2017-04-29T14:11:43Z</time>
      </trkpt>
      <trkpt lat="48.52578" lon="2.03602">
        <ele>95</ele>
        <time>2017-04-29T14:12:00Z</time>
      </trkpt>
      <trkpt lat="48.52592" lon="2.03547">
        <ele>94</ele>
        <time>2017-04-29T14:12:32Z</time>
      </trkpt>
      <trkpt lat="48.52602" lon="2.03508">
        <ele>94</ele>
        <time>2017-04-29T14:12:56Z</time>
      </trkpt>
      <trkpt lat="48.52603" lon="2.03494">
        <ele>94</ele>
        <time>2017-04-29T14:13:03Z</time>
      </trkpt>
      <trkpt lat="48.52616" lon="2.03439">
        <ele>95</ele>
        <time>2017-04-29T14:13:36Z</time>
      </trkpt>
      <trkpt lat="48.52622" lon="2.03411">
        <ele>95</ele>
        <time>2017-04-29T14:13:53Z</time>
      </trkpt>
      <trkpt lat="48.52623" lon="2.03396">
        <ele>95</ele>
        <time>2017-04-29T14:14:01Z</time>
      </trkpt>
      <trkpt lat="48.52629" lon="2.03383">
        <ele>95</ele>
        <time>2017-04-29T14:14:09Z</time>
      </trkpt>
      <trkpt lat="48.52631" lon="2.0337">
        <ele>95</ele>
        <time>2017-04-29T14:14:16Z</time>
      </trkpt>
      <trkpt lat="48.52628" lon="2.03327">
        <ele>95</ele>
        <time>2017-04-29T14:14:38Z</time>
      </trkpt>
      <trkpt lat="48.52625" lon="2.03312">
        <ele>95</ele>
        <time>2017-04-29T14:14:46Z</time>
      </trkpt>
      <trkpt lat="48.52626" lon="2.03283">
        <ele>95</ele>
        <time>2017-04-29T14:15:02Z</time>
      </trkpt>
      <trkpt lat="48.52617" lon="2.03228">
        <ele>95</ele>
        <time>2017-04-29T14:15:33Z</time>
      </trkpt>
      <trkpt lat="48.52611" lon="2.032">
        <ele>95</ele>
        <time>2017-04-29T14:15:50Z</time>
      </trkpt>
      <trkpt lat="48.5261" lon="2.03186">
        <ele>95</ele>
        <time>2017-04-29T14:15:57Z</time>
      </trkpt>
      <trkpt lat="48.52594" lon="2.03133">
        <ele>95</ele>
        <time>2017-04-29T14:16:30Z</time>
      </trkpt>
      <trkpt lat="48.52586" lon="2.03076">
        <ele>96</ele>
        <time>2017-04-29T14:17:03Z</time>
      </trkpt>
      <trkpt lat="48.52577" lon="2.03007">
        <ele>95</ele>
        <time>2017-04-29T14:17:40Z</time>
      </trkpt>
      <trkpt lat="48.52574" lon="2.02991">
        <ele>95</ele>
        <time>2017-04-29T14:17:48Z</time>
      </trkpt>
      <trkpt lat="48.52576" lon="2.02935">
        <ele>95</ele>
        <time>2017-04-29T14:18:24Z</time>
      </trkpt>
      <trkpt lat="48.52578" lon="2.02907">
        <ele>95</ele>
        <time>2017-04-29T14:18:39Z</time>
      </trkpt>
      <trkpt lat="48.52584" lon="2.02894">
        <ele>95</ele>
        <time>2017-04-29T14:18:47Z</time>
      </trkpt>
      <trkpt lat="48.52622" lon="2.02875">
        <ele>96</ele>
        <time>2017-04-29T14:19:20Z</time>
      </trkpt>
      <trkpt lat="48.52661" lon="2.02863">
        <ele>97</ele>
        <time>2017-04-29T14:19:53Z</time>
      </trkpt>
      <trkpt lat="48.52694" lon="2.02845">
        <ele>98</ele>
        <time>2017-04-29T14:20:24Z</time>
      </trkpt>
      <trkpt lat="48.52734" lon="2.02837">
        <ele>100</ele>
        <time>2017-04-29T14:20:58Z</time>
      </trkpt>
      <trkpt lat="48.52743" lon="2.02833">
        <ele>99</ele>
        <time>2017-04-29T14:21:06Z</time>
      </trkpt>
      <trkpt lat="48.52747" lon="2.02828">
        <ele>99</ele>
        <time>2017-04-29T14:21:11Z</time>
      </trkpt>
      <trkpt lat="48.52752" lon="2.02825">
        <ele>98</ele>
        <time>2017-04-29T14:21:16Z</time>
      </trkpt>
      <trkpt lat="48.52761" lon="2.02825">
        <ele>98</ele>
        <time>2017-04-29T14:21:25Z</time>
      </trkpt>
      <trkpt lat="48.5276" lon="2.02818">
        <ele>98</ele>
        <time>2017-04-29T14:21:48Z</time>
      </trkpt>
      <trkpt lat="48.5276" lon="2.0281">
        <ele>98</ele>
        <time>2017-04-29T14:21:53Z</time>
      </trkpt>
      <trkpt lat="48.52759" lon="2.02804">
        <ele>98</ele>
        <time>2017-04-29T14:21:57Z</time>
      </trkpt>
      <trkpt lat="48.52758" lon="2.02797">
        <ele>98</ele>
        <time>2017-04-29T14:22:02Z</time>
      </trkpt>
      <trkpt lat="48.52753" lon="2.02796">
        <ele>98</ele>
        <time>2017-04-29T14:22:06Z</time>
      </trkpt>
      <trkpt lat="48.52748" lon="2.02793">
        <ele>98</ele>
        <time>2017-04-29T14:22:10Z</time>
      </trkpt>
      <trkpt lat="48.5275" lon="2.02787">
        <ele>98</ele>
        <time>2017-04-29T14:22:15Z</time>
      </trkpt>
      <trkpt lat="48.5276" lon="2.02781">
        <ele>99</ele>
        <time>2017-04-29T14:22:22Z</time>
      </trkpt>
      <trkpt lat="48.5279" lon="2.02745">
        <ele>99</ele>
        <time>2017-04-29T14:22:54Z</time>
      </trkpt>
      <trkpt lat="48.528" lon="2.02731">
        <ele>98</ele>
        <time>2017-04-29T14:23:06Z</time>
      </trkpt>
      <trkpt lat="48.52808" lon="2.02711">
        <ele>98</ele>
        <time>2017-04-29T14:23:19Z</time>
      </trkpt>
      <trkpt lat="48.52813" lon="2.02698">
        <ele>97</ele>
        <time>2017-04-29T14:23:27Z</time>
      </trkpt>
      <trkpt lat="48.52815" lon="2.02692">
        <ele>97</ele>
        <time>2017-04-29T14:23:31Z</time>
      </trkpt>
      <trkpt lat="48.52818" lon="2.02677">
        <ele>97</ele>
        <time>2017-04-29T14:23:42Z</time>
      </trkpt>
      <trkpt lat="48.5282" lon="2.0267">
        <ele>97</ele>
        <time>2017-04-29T14:23:46Z</time>
      </trkpt>
      <trkpt lat="48.52829" lon="2.02664">
        <ele>97</ele>
        <time>2017-04-29T14:23:55Z</time>
      </trkpt>
      <trkpt lat="48.52828" lon="2.02645">
        <ele>96</ele>
        <time>2017-04-29T14:24:22Z</time>
      </trkpt>
      <trkpt lat="48.52824" lon="2.02624">
        <ele>96</ele>
        <time>2017-04-29T14:24:37Z</time>
      </trkpt>
      <trkpt lat="48.52824" lon="2.02616">
        <ele>96</ele>
        <time>2017-04-29T14:24:42Z</time>
      </trkpt>
      <trkpt lat="48.52824" lon="2.02608">
        <ele>96</ele>
        <time>2017-04-29T14:24:47Z</time>
      </trkpt>
      <trkpt lat="48.52819" lon="2.02578">
        <ele>96</ele>
        <time>2017-04-29T14:25:05Z</time>
      </trkpt>
      <trkpt lat="48.52817" lon="2.02554">
        <ele>96</ele>
        <time>2017-04-29T14:25:20Z</time>
      </trkpt>
      <trkpt lat="48.5281" lon="2.02526">
        <ele>96</ele>
        <time>2017-04-29T14:25:38Z</time>
      </trkpt>
      <trkpt lat="48.52804" lon="2.02512">
        <ele>96</ele>
        <time>2017-04-29T14:25:47Z</time>
      </trkpt>
      <trkpt lat="48.52801" lon="2.02499">
        <ele>97</ele>
        <time>2017-04-29T14:25:57Z</time>
      </trkpt>
      <trkpt lat="48.52798" lon="2.02492">
        <ele>97</ele>
        <time>2017-04-29T14:26:02Z</time>
      </trkpt>
      <trkpt lat="48.5279" lon="2.0248">
        <ele>97</ele>
        <time>2017-04-29T14:26:13Z</time>
      </trkpt>
      <trkpt lat="48.52782" lon="2.02461">
        <ele>96</ele>
        <time>2017-04-29T14:26:27Z</time>
      </trkpt>
      <trkpt lat="48.52762" lon="2.02436">
        <ele>97</ele>
        <time>2017-04-29T14:26:52Z</time>
      </trkpt>
      <trkpt lat="48.52757" lon="2.02422">
        <ele>97</ele>
        <time>2017-04-29T14:27:02Z</time>
      </trkpt>
      <trkpt lat="48.52756" lon="2.02415">
        <ele>97</ele>
        <time>2017-04-29T14:27:06Z</time>
      </trkpt>
      <trkpt lat="48.5274" lon="2.02371">
        <ele>98</ele>
        <time>2017-04-29T14:27:38Z</time>
      </trkpt>
      <trkpt lat="48.52729" lon="2.02347">
        <ele>99</ele>
        <time>2017-04-29T14:27:58Z</time>
      </trkpt>
      <trkpt lat="48.52726" lon="2.02334">
        <ele>100</ele>
        <time>2017-04-29T14:28:07Z</time>
      </trkpt>
      <trkpt lat="48.52722" lon="2.02322">
        <ele>100</ele>
        <time>2017-04-29T14:28:14Z</time>
      </trkpt>
      <trkpt lat="48.52707" lon="2.02306">
        <ele>100</ele>
        <time>2017-04-29T14:28:29Z</time>
      </trkpt>
      <trkpt lat="48.52693" lon="2.02268">
        <ele>101</ele>
        <time>2017-04-29T14:28:53Z</time>
      </trkpt>
      <trkpt lat="48.52687" lon="2.02259">
        <ele>101</ele>
        <time>2017-04-29T14:29:00Z</time>
      </trkpt>
      <trkpt lat="48.52676" lon="2.02234">
        <ele>101</ele>
        <time>2017-04-29T14:29:16Z</time>
      </trkpt>
      <trkpt lat="48.52669" lon="2.02225">
        <ele>101</ele>
        <time>2017-04-29T14:29:23Z</time>
      </trkpt>
      <trkpt lat="48.52665" lon="2.02212">
        <ele>101</ele>
        <time>2017-04-29T14:29:31Z</time>
      </trkpt>
      <trkpt lat="48.52651" lon="2.02191">
        <ele>101</ele>
        <time>2017-04-29T14:29:49Z</time>
      </trkpt>
      <trkpt lat="48.52643" lon="2.02184">
        <ele>102</ele>
        <time>2017-04-29T14:29:57Z</time>
      </trkpt>
      <trkpt lat="48.52634" lon="2.02176">
        <ele>102</ele>
        <time>2017-04-29T14:30:10Z</time>
      </trkpt>
      <trkpt lat="48.52624" lon="2.02176">
        <ele>103</ele>
        <time>2017-04-29T14:30:18Z</time>
      </trkpt>
      <trkpt lat="48.52596" lon="2.02159">
        <ele>108</ele>
        <time>2017-04-29T14:30:47Z</time>
      </trkpt>
      <trkpt lat="48.5259" lon="2.02148">
        <ele>109</ele>
        <time>2017-04-29T14:31:00Z</time>
      </trkpt>
      <trkpt lat="48.5258" lon="2.02142">
        <ele>110</ele>
        <time>2017-04-29T14:31:26Z</time>
      </trkpt>
      <trkpt lat="48.52569" lon="2.0214">
        <ele>111</ele>
        <time>2017-04-29T14:31:57Z</time>
      </trkpt>
      <trkpt lat="48.52559" lon="2.02129">
        <ele>112</ele>
        <time>2017-04-29T14:34:17Z</time>
      </trkpt>
      <trkpt lat="48.5255" lon="2.02122">
        <ele>112</ele>
        <time>2017-04-29T14:34:25Z</time>
      </trkpt>
      <trkpt lat="48.5254" lon="2.0212">
        <ele>112</ele>
        <time>2017-04-29T14:34:33Z</time>
      </trkpt>
      <trkpt lat="48.52512" lon="2.02105">
        <ele>111</ele>
        <time>2017-04-29T14:34:57Z</time>
      </trkpt>
      <trkpt lat="48.52503" lon="2.02103">
        <ele>111</ele>
        <time>2017-04-29T14:35:06Z</time>
      </trkpt>
      <trkpt lat="48.52494" lon="2.02095">
        <ele>110</ele>
        <time>2017-04-29T14:35:16Z</time>
      </trkpt>
      <trkpt lat="48.5249" lon="2.02089">
        <ele>110</ele>
        <time>2017-04-29T14:35:21Z</time>
      </trkpt>
      <trkpt lat="48.52487" lon="2.02074">
        <ele>110</ele>
        <time>2017-04-29T14:35:30Z</time>
      </trkpt>
      <trkpt lat="48.52487" lon="2.02067">
        <ele>110</ele>
        <time>2017-04-29T14:35:34Z</time>
      </trkpt>
      <trkpt lat="48.52495" lon="2.02047">
        <ele>106</ele>
        <time>2017-04-29T14:35:46Z</time>
      </trkpt>
      <trkpt lat="48.52494" lon="2.0203">
        <ele>104</ele>
        <time>2017-04-29T14:35:57Z</time>
      </trkpt>
      <trkpt lat="48.52496" lon="2.02023">
        <ele>103</ele>
        <time>2017-04-29T14:36:02Z</time>
      </trkpt>
      <trkpt lat="48.52498" lon="2.02016">
        <ele>103</ele>
        <time>2017-04-29T14:36:06Z</time>
      </trkpt>
      <trkpt lat="48.52501" lon="2.01995">
        <ele>103</ele>
        <time>2017-04-29T14:36:18Z</time>
      </trkpt>
      <trkpt lat="48.52504" lon="2.01981">
        <ele>102</ele>
        <time>2017-04-29T14:36:26Z</time>
      </trkpt>
      <trkpt lat="48.5251" lon="2.01932">
        <ele>100</ele>
        <time>2017-04-29T14:36:53Z</time>
      </trkpt>
      <trkpt lat="48.52513" lon="2.01919">
        <ele>100</ele>
        <time>2017-04-29T14:37:01Z</time>
      </trkpt>
      <trkpt lat="48.52513" lon="2.01896">
        <ele>100</ele>
        <time>2017-04-29T14:37:15Z</time>
      </trkpt>
      <trkpt lat="48.52506" lon="2.01851">
        <ele>99</ele>
        <time>2017-04-29T14:37:41Z</time>
      </trkpt>
      <trkpt lat="48.52506" lon="2.01844">
        <ele>99</ele>
        <time>2017-04-29T14:37:46Z</time>
      </trkpt>
      <trkpt lat="48.52504" lon="2.01836">
        <ele>99</ele>
        <time>2017-04-29T14:37:51Z</time>
      </trkpt>
      <trkpt lat="48.5251" lon="2.01782">
        <ele>98</ele>
        <time>2017-04-29T14:38:23Z</time>
      </trkpt>
      <trkpt lat="48.52512" lon="2.01767">
        <ele>98</ele>
        <time>2017-04-29T14:38:33Z</time>
      </trkpt>
      <trkpt lat="48.52512" lon="2.01753">
        <ele>97</ele>
        <time>2017-04-29T14:38:41Z</time>
      </trkpt>
      <trkpt lat="48.52515" lon="2.01746">
        <ele>97</ele>
        <time>2017-04-29T14:38:46Z</time>
      </trkpt>
      <trkpt lat="48.52516" lon="2.01738">
        <ele>98</ele>
        <time>2017-04-29T14:38:51Z</time>
      </trkpt>
      <trkpt lat="48.5252" lon="2.01722">
        <ele>97</ele>
        <time>2017-04-29T14:39:00Z</time>
      </trkpt>
      <trkpt lat="48.52524" lon="2.01717">
        <ele>97</ele>
        <time>2017-04-29T14:39:05Z</time>
      </trkpt>
      <trkpt lat="48.52528" lon="2.01716">
        <ele>97</ele>
        <time>2017-04-29T14:39:09Z</time>
      </trkpt>
      <trkpt lat="48.52531" lon="2.01712">
        <ele>97</ele>
        <time>2017-04-29T14:39:13Z</time>
      </trkpt>
      <trkpt lat="48.52539" lon="2.01685">
        <ele>97</ele>
        <time>2017-04-29T14:39:30Z</time>
      </trkpt>
      <trkpt lat="48.52541" lon="2.01669">
        <ele>97</ele>
        <time>2017-04-29T14:39:38Z</time>
      </trkpt>
      <trkpt lat="48.52546" lon="2.01655">
        <ele>97</ele>
        <time>2017-04-29T14:39:47Z</time>
      </trkpt>
      <trkpt lat="48.52551" lon="2.01655">
        <ele>97</ele>
        <time>2017-04-29T14:39:52Z</time>
      </trkpt>
      <trkpt lat="48.5256" lon="2.01662">
        <ele>97</ele>
        <time>2017-04-29T14:40:03Z</time>
      </trkpt>
      <trkpt lat="48.52566" lon="2.01663">
        <ele>97</ele>
        <time>2017-04-29T14:40:09Z</time>
      </trkpt>
      <trkpt lat="48.52569" lon="2.01657">
        <ele>97</ele>
        <time>2017-04-29T14:40:13Z</time>
      </trkpt>
      <trkpt lat="48.52574" lon="2.01643">
        <ele>97</ele>
        <time>2017-04-29T14:40:21Z</time>
      </trkpt>
      <trkpt lat="48.52577" lon="2.01637">
        <ele>97</ele>
        <time>2017-04-29T14:40:25Z</time>
      </trkpt>
      <trkpt lat="48.52575" lon="2.0163">
        <ele>97</ele>
        <time>2017-04-29T14:40:30Z</time>
      </trkpt>
      <trkpt lat="48.52565" lon="2.01624">
        <ele>97</ele>
        <time>2017-04-29T14:40:38Z</time>
      </trkpt>
      <trkpt lat="48.52559" lon="2.01615">
        <ele>97</ele>
        <time>2017-04-29T14:40:46Z</time>
      </trkpt>
      <trkpt lat="48.5256" lon="2.01607">
        <ele>97</ele>
        <time>2017-04-29T14:40:51Z</time>
      </trkpt>
      <trkpt lat="48.52563" lon="2.016">
        <ele>97</ele>
        <time>2017-04-29T14:40:56Z</time>
      </trkpt>
      <trkpt lat="48.52563" lon="2.01592">
        <ele>97</ele>
        <time>2017-04-29T14:41:02Z</time>
      </trkpt>
      <trkpt lat="48.52568" lon="2.0158">
        <ele>97</ele>
        <time>2017-04-29T14:41:10Z</time>
      </trkpt>
      <trkpt lat="48.5258" lon="2.01546">
        <ele>96</ele>
        <time>2017-04-29T14:41:32Z</time>
      </trkpt>
      <trkpt lat="48.52584" lon="2.01542">
        <ele>96</ele>
        <time>2017-04-29T14:41:36Z</time>
      </trkpt>
      <trkpt lat="48.5259" lon="2.01541">
        <ele>97</ele>
        <time>2017-04-29T14:41:42Z</time>
      </trkpt>
      <trkpt lat="48.52607" lon="2.01553">
        <ele>97</ele>
        <time>2017-04-29T14:41:58Z</time>
      </trkpt>
      <trkpt lat="48.52636" lon="2.01564">
        <ele>97</ele>
        <time>2017-04-29T14:42:23Z</time>
      </trkpt>
      <trkpt lat="48.52665" lon="2.0158">
        <ele>97</ele>
        <time>2017-04-29T14:42:48Z</time>
      </trkpt>
      <trkpt lat="48.52674" lon="2.0157">
        <ele>97</ele>
        <time>2017-04-29T14:42:57Z</time>
      </trkpt>
      <trkpt lat="48.52678" lon="2.01569">
        <ele>97</ele>
        <time>2017-04-29T14:43:01Z</time>
      </trkpt>
      <trkpt lat="48.52682" lon="2.01565">
        <ele>97</ele>
        <time>2017-04-29T14:43:05Z</time>
      </trkpt>
      <trkpt lat="48.52687" lon="2.01544">
        <ele>97</ele>
        <time>2017-04-29T14:43:17Z</time>
      </trkpt>
      <trkpt lat="48.52689" lon="2.01538">
        <ele>97</ele>
        <time>2017-04-29T14:43:21Z</time>
      </trkpt>
      <trkpt lat="48.5269" lon="2.0153">
        <ele>97</ele>
        <time>2017-04-29T14:43:25Z</time>
      </trkpt>
      <trkpt lat="48.52697" lon="2.0151">
        <ele>97</ele>
        <time>2017-04-29T14:43:37Z</time>
      </trkpt>
      <trkpt lat="48.52698" lon="2.01502">
        <ele>97</ele>
        <time>2017-04-29T14:43:42Z</time>
      </trkpt>
      <trkpt lat="48.52698" lon="2.01494">
        <ele>97</ele>
        <time>2017-04-29T14:43:47Z</time>
      </trkpt>
      <trkpt lat="48.52703" lon="2.0148">
        <ele>96</ele>
        <time>2017-04-29T14:43:55Z</time>
      </trkpt>
      <trkpt lat="48.52704" lon="2.01441">
        <ele>96</ele>
        <time>2017-04-29T14:44:15Z</time>
      </trkpt>
      <trkpt lat="48.52702" lon="2.01433">
        <ele>96</ele>
        <time>2017-04-29T14:44:19Z</time>
      </trkpt>
      <trkpt lat="48.52698" lon="2.01419">
        <ele>96</ele>
        <time>2017-04-29T14:44:27Z</time>
      </trkpt>
      <trkpt lat="48.52697" lon="2.01412">
        <ele>96</ele>
        <time>2017-04-29T14:44:31Z</time>
      </trkpt>
      <trkpt lat="48.52692" lon="2.01397">
        <ele>96</ele>
        <time>2017-04-29T14:44:39Z</time>
      </trkpt>
      <trkpt lat="48.52689" lon="2.01383">
        <ele>96</ele>
        <time>2017-04-29T14:44:48Z</time>
      </trkpt>
      <trkpt lat="48.52692" lon="2.01378">
        <ele>96</ele>
        <time>2017-04-29T14:44:54Z</time>
      </trkpt>
      <trkpt lat="48.52697" lon="2.01376">
        <ele>96</ele>
        <time>2017-04-29T14:45:01Z</time>
      </trkpt>
      <trkpt lat="48.52702" lon="2.01378">
        <ele>96</ele>
        <time>2017-04-29T14:45:11Z</time>
      </trkpt>
      <trkpt lat="48.52704" lon="2.01369">
        <ele>96</ele>
        <time>2017-04-29T14:45:44Z</time>
      </trkpt>
      <trkpt lat="48.52709" lon="2.01367">
        <ele>96</ele>
        <time>2017-04-29T14:45:48Z</time>
      </trkpt>
      <trkpt lat="48.52728" lon="2.01352">
        <ele>96</ele>
        <time>2017-04-29T14:46:05Z</time>
      </trkpt>
      <trkpt lat="48.52732" lon="2.01351">
        <ele>96</ele>
        <time>2017-04-29T14:46:11Z</time>
      </trkpt>
      <trkpt lat="48.52757" lon="2.01362">
        <ele>96</ele>
        <time>2017-04-29T14:46:33Z</time>
      </trkpt>
      <trkpt lat="48.52787" lon="2.01366">
        <ele>97</ele>
        <time>2017-04-29T14:47:00Z</time>
      </trkpt>
      <trkpt lat="48.52792" lon="2.01369">
        <ele>97</ele>
        <time>2017-04-29T14:47:03Z</time>
      </trkpt>
      <trkpt lat="48.52796" lon="2.01368">
        <ele>97</ele>
        <time>2017-04-29T14:47:07Z</time>
      </trkpt>
      <trkpt lat="48.52808" lon="2.01358">
        <ele>97</ele>
        <time>2017-04-29T14:47:20Z</time>
      </trkpt>
      <trkpt lat="48.52818" lon="2.01351">
        <ele>97</ele>
        <time>2017-04-29T14:47:29Z</time>
      </trkpt>
      <trkpt lat="48.52846" lon="2.01316">
        <ele>98</ele>
        <time>2017-04-29T14:47:59Z</time>
      </trkpt>
      <trkpt lat="48.52856" lon="2.013">
        <ele>99</ele>
        <time>2017-04-29T14:48:11Z</time>
      </trkpt>
      <trkpt lat="48.52869" lon="2.01285">
        <ele>100</ele>
        <time>2017-04-29T14:48:23Z</time>
      </trkpt>
      <trkpt lat="48.52873" lon="2.01279">
        <ele>101</ele>
        <time>2017-04-29T14:48:28Z</time>
      </trkpt>
      <trkpt lat="48.52887" lon="2.0127">
        <ele>102</ele>
        <time>2017-04-29T14:48:43Z</time>
      </trkpt>
      <trkpt lat="48.52889" lon="2.01264">
        <ele>102</ele>
        <time>2017-04-29T14:48:47Z</time>
      </trkpt>
      <trkpt lat="48.52898" lon="2.01257">
        <ele>102</ele>
        <time>2017-04-29T14:48:55Z</time>
      </trkpt>
      <trkpt lat="48.52903" lon="2.01257">
        <ele>103</ele>
        <time>2017-04-29T14:49:00Z</time>
      </trkpt>
      <trkpt lat="48.52907" lon="2.01253">
        <ele>103</ele>
        <time>2017-04-29T14:49:05Z</time>
      </trkpt>
      <trkpt lat="48.52911" lon="2.01248">
        <ele>103</ele>
        <time>2017-04-29T14:49:10Z</time>
      </trkpt>
      <trkpt lat="48.52913" lon="2.01241">
        <ele>104</ele>
        <time>2017-04-29T14:49:16Z</time>
      </trkpt>
      <trkpt lat="48.52917" lon="2.01235">
        <ele>104</ele>
        <time>2017-04-29T14:49:21Z</time>
      </trkpt>
      <trkpt lat="48.52926" lon="2.01229">
        <ele>105</ele>
        <time>2017-04-29T14:49:38Z</time>
      </trkpt>
      <trkpt lat="48.52931" lon="2.0123">
        <ele>105</ele>
        <time>2017-04-29T14:49:52Z</time>
      </trkpt>
      <trkpt lat="48.52935" lon="2.01224">
        <ele>106</ele>
        <time>2017-04-29T14:50:03Z</time>
      </trkpt>
      <trkpt lat="48.52943" lon="2.01213">
        <ele>106</ele>
        <time>2017-04-29T14:50:19Z</time>
      </trkpt>
      <trkpt lat="48.52949" lon="2.01201">
        <ele>106</ele>
        <time>2017-04-29T14:50:35Z</time>
      </trkpt>
      <trkpt lat="48.52944" lon="2.012">
        <ele>106</ele>
        <time>2017-04-29T14:50:43Z</time>
      </trkpt>
      <trkpt lat="48.5294" lon="2.01197">
        <ele>106</ele>
        <time>2017-04-29T14:50:47Z</time>
      </trkpt>
      <trkpt lat="48.52935" lon="2.01195">
        <ele>107</ele>
        <time>2017-04-29T14:51:16Z</time>
      </trkpt>
      <trkpt lat="48.52936" lon="2.01181">
        <ele>109</ele>
        <time>2017-04-29T14:55:34Z</time>
      </trkpt>
      <trkpt lat="48.5294" lon="2.01176">
        <ele>110</ele>
        <time>2017-04-29T14:55:54Z</time>
      </trkpt>
      <trkpt lat="48.52944" lon="2.01172">
        <ele>110</ele>
        <time>2017-04-29T14:56:02Z</time>
      </trkpt>
      <trkpt lat="48.52949" lon="2.01169">
        <ele>111</ele>
        <time>2017-04-29T14:56:07Z</time>
      </trkpt>
      <trkpt lat="48.52956" lon="2.01168">
        <ele>112</ele>
        <time>2017-04-29T14:56:14Z</time>
      </trkpt>
      <trkpt lat="48.52967" lon="2.01163">
        <ele>113</ele>
        <time>2017-04-29T14:56:24Z</time>
      </trkpt>
      <trkpt lat="48.52972" lon="2.01166">
        <ele>113</ele>
        <time>2017-04-29T14:56:28Z</time>
      </trkpt>
      <trkpt lat="48.5298" lon="2.01173">
        <ele>113</ele>
        <time>2017-04-29T14:56:39Z</time>
      </trkpt>
      <trkpt lat="48.52984" lon="2.01171">
        <ele>113</ele>
        <time>2017-04-29T14:56:44Z</time>
      </trkpt>
      <trkpt lat="48.52989" lon="2.01171">
        <ele>113</ele>
        <time>2017-04-29T14:56:48Z</time>
      </trkpt>
      <trkpt lat="48.52993" lon="2.01173">
        <ele>114</ele>
        <time>2017-04-29T14:56:53Z</time>
      </trkpt>
      <trkpt lat="48.53005" lon="2.01168">
        <ele>114</ele>
        <time>2017-04-29T14:57:09Z</time>
      </trkpt>
      <trkpt lat="48.53027" lon="2.01147">
        <ele>115</ele>
        <time>2017-04-29T14:57:32Z</time>
      </trkpt>
      <trkpt lat="48.53039" lon="2.01136">
        <ele>116</ele>
        <time>2017-04-29T14:57:41Z</time>
      </trkpt>
      <trkpt lat="48.53043" lon="2.0113">
        <ele>116</ele>
        <time>2017-04-29T14:57:45Z</time>
      </trkpt>
      <trkpt lat="48.53047" lon="2.01127">
        <ele>116</ele>
        <time>2017-04-29T14:57:51Z</time>
      </trkpt>
      <trkpt lat="48.53055" lon="2.01117">
        <ele>114</ele>
        <time>2017-04-29T14:58:01Z</time>
      </trkpt>
      <trkpt lat="48.53062" lon="2.01118">
        <ele>114</ele>
        <time>2017-04-29T14:58:20Z</time>
      </trkpt>
      <trkpt lat="48.53065" lon="2.01113">
        <ele>114</ele>
        <time>2017-04-29T14:58:33Z</time>
      </trkpt>
      <trkpt lat="48.53069" lon="2.01106">
        <ele>114</ele>
        <time>2017-04-29T14:58:38Z</time>
      </trkpt>
      <trkpt lat="48.53075" lon="2.01086">
        <ele>114</ele>
        <time>2017-04-29T14:58:52Z</time>
      </trkpt>
      <trkpt lat="48.53077" lon="2.01078">
        <ele>113</ele>
        <time>2017-04-29T14:58:57Z</time>
      </trkpt>
      <trkpt lat="48.53081" lon="2.01064">
        <ele>112</ele>
        <time>2017-04-29T14:59:06Z</time>
      </trkpt>
      <trkpt lat="48.53085" lon="2.0106">
        <ele>112</ele>
        <time>2017-04-29T14:59:12Z</time>
      </trkpt>
      <trkpt lat="48.53104" lon="2.01048">
        <ele>113</ele>
        <time>2017-04-29T14:59:29Z</time>
      </trkpt>
      <trkpt lat="48.5313" lon="2.01026">
        <ele>114</ele>
        <time>2017-04-29T14:59:56Z</time>
      </trkpt>
      <trkpt lat="48.53148" lon="2.01017">
        <ele>114</ele>
        <time>2017-04-29T15:00:11Z</time>
      </trkpt>
      <trkpt lat="48.53155" lon="2.01005">
        <ele>115</ele>
        <time>2017-04-29T15:00:23Z</time>
      </trkpt>
      <trkpt lat="48.53154" lon="2.00996">
        <ele>115</ele>
        <time>2017-04-29T15:00:28Z</time>
      </trkpt>
      <trkpt lat="48.53151" lon="2.0099">
        <ele>115</ele>
        <time>2017-04-29T15:00:31Z</time>
      </trkpt>
      <trkpt lat="48.53152" lon="2.00983">
        <ele>115</ele>
        <time>2017-04-29T15:00:36Z</time>
      </trkpt>
      <trkpt lat="48.53157" lon="2.00981">
        <ele>115</ele>
        <time>2017-04-29T15:00:42Z</time>
      </trkpt>
      <trkpt lat="48.53165" lon="2.00972">
        <ele>116</ele>
        <time>2017-04-29T15:00:51Z</time>
      </trkpt>
      <trkpt lat="48.53169" lon="2.0097">
        <ele>116</ele>
        <time>2017-04-29T15:00:56Z</time>
      </trkpt>
      <trkpt lat="48.53167" lon="2.0098">
        <ele>116</ele>
        <time>2017-04-29T15:01:16Z</time>
      </trkpt>
      <trkpt lat="48.53167" lon="2.00988">
        <ele>117</ele>
        <time>2017-04-29T15:01:22Z</time>
      </trkpt>
      <trkpt lat="48.53167" lon="2.00995">
        <ele>117</ele>
        <time>2017-04-29T15:01:26Z</time>
      </trkpt>
      <trkpt lat="48.5317" lon="2.01001">
        <ele>117</ele>
        <time>2017-04-29T15:01:30Z</time>
      </trkpt>
      <trkpt lat="48.53174" lon="2.01005">
        <ele>117</ele>
        <time>2017-04-29T15:01:33Z</time>
      </trkpt>
      <trkpt lat="48.53179" lon="2.01006">
        <ele>117</ele>
        <time>2017-04-29T15:01:36Z</time>
      </trkpt>
      <trkpt lat="48.53182" lon="2.01013">
        <ele>117</ele>
        <time>2017-04-29T15:01:40Z</time>
      </trkpt>
      <trkpt lat="48.53184" lon="2.0102">
        <ele>117</ele>
        <time>2017-04-29T15:01:44Z</time>
      </trkpt>
      <trkpt lat="48.53186" lon="2.01028">
        <ele>117</ele>
        <time>2017-04-29T15:01:49Z</time>
      </trkpt>
      <trkpt lat="48.53195" lon="2.01043">
        <ele>116</ele>
        <time>2017-04-29T15:01:59Z</time>
      </trkpt>
      <trkpt lat="48.532" lon="2.01046">
        <ele>116</ele>
        <time>2017-04-29T15:02:05Z</time>
      </trkpt>
      <trkpt lat="48.53205" lon="2.01046">
        <ele>116</ele>
        <time>2017-04-29T15:02:08Z</time>
      </trkpt>
      <trkpt lat="48.53223" lon="2.01085">
        <ele>118</ele>
        <time>2017-04-29T15:02:40Z</time>
      </trkpt>
      <trkpt lat="48.53227" lon="2.01091">
        <ele>118</ele>
        <time>2017-04-29T15:02:45Z</time>
      </trkpt>
      <trkpt lat="48.5324" lon="2.01103">
        <ele>118</ele>
        <time>2017-04-29T15:02:57Z</time>
      </trkpt>
      <trkpt lat="48.53249" lon="2.01106">
        <ele>118</ele>
        <time>2017-04-29T15:03:04Z</time>
      </trkpt>
      <trkpt lat="48.53252" lon="2.01113">
        <ele>118</ele>
        <time>2017-04-29T15:03:08Z</time>
      </trkpt>
      <trkpt lat="48.53254" lon="2.0112">
        <ele>118</ele>
        <time>2017-04-29T15:03:12Z</time>
      </trkpt>
      <trkpt lat="48.53258" lon="2.01125">
        <ele>118</ele>
        <time>2017-04-29T15:03:16Z</time>
      </trkpt>
      <trkpt lat="48.53269" lon="2.01151">
        <ele>119</ele>
        <time>2017-04-29T15:03:32Z</time>
      </trkpt>
      <trkpt lat="48.53276" lon="2.01161">
        <ele>119</ele>
        <time>2017-04-29T15:03:41Z</time>
      </trkpt>
      <trkpt lat="48.53282" lon="2.01162">
        <ele>119</ele>
        <time>2017-04-29T15:03:46Z</time>
      </trkpt>
      <trkpt lat="48.53286" lon="2.01165">
        <ele>119</ele>
        <time>2017-04-29T15:03:50Z</time>
      </trkpt>
      <trkpt lat="48.53287" lon="2.01172">
        <ele>119</ele>
        <time>2017-04-29T15:03:58Z</time>
      </trkpt>
      <trkpt lat="48.53298" lon="2.01187">
        <ele>119</ele>
        <time>2017-04-29T15:04:09Z</time>
      </trkpt>
      <trkpt lat="48.53318" lon="2.01212">
        <ele>119</ele>
        <time>2017-04-29T15:04:34Z</time>
      </trkpt>
      <trkpt lat="48.53325" lon="2.01213">
        <ele>119</ele>
        <time>2017-04-29T15:04:41Z</time>
      </trkpt>
      <trkpt lat="48.5333" lon="2.01211">
        <ele>119</ele>
        <time>2017-04-29T15:04:45Z</time>
      </trkpt>
      <trkpt lat="48.53335" lon="2.01213">
        <ele>119</ele>
        <time>2017-04-29T15:04:49Z</time>
      </trkpt>
      <trkpt lat="48.53341" lon="2.01211">
        <ele>119</ele>
        <time>2017-04-29T15:04:53Z</time>
      </trkpt>
      <trkpt lat="48.53346" lon="2.01212">
        <ele>119</ele>
        <time>2017-04-29T15:04:57Z</time>
      </trkpt>
      <trkpt lat="48.53355" lon="2.01217">
        <ele>119</ele>
        <time>2017-04-29T15:05:03Z</time>
      </trkpt>
      <trkpt lat="48.5336" lon="2.01217">
        <ele>119</ele>
        <time>2017-04-29T15:05:07Z</time>
      </trkpt>
      <trkpt lat="48.53382" lon="2.01203">
        <ele>120</ele>
        <time>2017-04-29T15:05:32Z</time>
      </trkpt>
      <trkpt lat="48.5339" lon="2.01192">
        <ele>119</ele>
        <time>2017-04-29T15:05:40Z</time>
      </trkpt>
      <trkpt lat="48.53401" lon="2.01132">
        <ele>120</ele>
        <time>2017-04-29T15:06:14Z</time>
      </trkpt>
      <trkpt lat="48.53403" lon="2.01116">
        <ele>120</ele>
        <time>2017-04-29T15:06:23Z</time>
      </trkpt>
      <trkpt lat="48.53399" lon="2.0111">
        <ele>120</ele>
        <time>2017-04-29T15:06:28Z</time>
      </trkpt>
      <trkpt lat="48.53395" lon="2.01096">
        <ele>120</ele>
        <time>2017-04-29T15:06:36Z</time>
      </trkpt>
    </trkseg>
  </trk>
</gpx>